<?xml version="1.0" encoding="UTF-8" standalone="no" ?>
<gpx xmlns="http://www.topografix.com/GPX/1/1" xmlns:xsi="http://www.w3.org/2001/XMLSchema-instance" xsi:schemaLocation="http://www.topografix.com/GPX/1/1 http://www.topografix.com/GPX/1/1/gpx.xsd" version="1.1" creator="VisuGPX - https://www.visugpx.com">
  <metadata>
    <name>71 CCC Flémalle - Evelette - Flémalle</name>
    <desc><![CDATA[Randonnée au départ de l'Auto5 de Flémalle.
Flémalle - Amay - Fond d'Oxhe - Outrelouxhe - Ramelot - Terwagne - Clavier - Modave - Vyl et Tharoul - Evelette - Jallet - Marchin - Huy - Amay - Flémalle.]]></desc>
  </metadata>
  <trk>
    <name><![CDATA[71 CCC]]></name>
    <extensions>
      <line xmlns="http://www.topografix.com/GPX/gpx_style/0/2">
        <color>0000FF</color>
        <width>4</width>
      </line>
    </extensions>
    <trkseg>
      <trkpt lat="50.60413" lon="5.48423">
        <ele>65</ele>
        <time>2019-09-22T19:46:20Z</time>
      </trkpt>
      <trkpt lat="50.60405" lon="5.48438">
        <ele>65</ele>
        <time>2019-09-22T19:46:22Z</time>
      </trkpt>
      <trkpt lat="50.6035" lon="5.48518">
        <ele>64</ele>
        <time>2019-09-22T19:46:36Z</time>
      </trkpt>
      <trkpt lat="50.60367" lon="5.48547">
        <ele>63</ele>
        <time>2019-09-22T19:46:40Z</time>
      </trkpt>
      <trkpt lat="50.60371" lon="5.48535">
        <ele>64</ele>
        <time>2019-09-22T19:46:42Z</time>
      </trkpt>
      <trkpt lat="50.6043" lon="5.48462">
        <ele>65</ele>
        <time>2019-09-22T19:46:55Z</time>
      </trkpt>
      <trkpt lat="50.60492" lon="5.48395">
        <ele>67</ele>
        <time>2019-09-22T19:47:08Z</time>
      </trkpt>
      <trkpt lat="50.60502" lon="5.48392">
        <ele>67</ele>
        <time>2019-09-22T19:47:10Z</time>
      </trkpt>
      <trkpt lat="50.60504" lon="5.48381">
        <ele>67</ele>
        <time>2019-09-22T19:47:11Z</time>
      </trkpt>
      <trkpt lat="50.60501" lon="5.48372">
        <ele>68</ele>
        <time>2019-09-22T19:47:12Z</time>
      </trkpt>
      <trkpt lat="50.60496" lon="5.48366">
        <ele>68</ele>
        <time>2019-09-22T19:47:14Z</time>
      </trkpt>
      <trkpt lat="50.60467" lon="5.48262">
        <ele>68</ele>
        <time>2019-09-22T19:47:26Z</time>
      </trkpt>
      <trkpt lat="50.60445" lon="5.48198">
        <ele>68</ele>
        <time>2019-09-22T19:47:35Z</time>
      </trkpt>
      <trkpt lat="50.60408" lon="5.48099">
        <ele>67</ele>
        <time>2019-09-22T19:47:48Z</time>
      </trkpt>
      <trkpt lat="50.60357" lon="5.47987">
        <ele>67</ele>
        <time>2019-09-22T19:48:03Z</time>
      </trkpt>
      <trkpt lat="50.59952" lon="5.47273">
        <ele>65</ele>
        <time>2019-09-22T19:49:51Z</time>
      </trkpt>
      <trkpt lat="50.59927" lon="5.47195">
        <ele>64</ele>
        <time>2019-09-22T19:50:01Z</time>
      </trkpt>
      <trkpt lat="50.59877" lon="5.469">
        <ele>67</ele>
        <time>2019-09-22T19:50:36Z</time>
      </trkpt>
      <trkpt lat="50.59856" lon="5.46815">
        <ele>68</ele>
        <time>2019-09-22T19:50:46Z</time>
      </trkpt>
      <trkpt lat="50.59841" lon="5.46768">
        <ele>68</ele>
        <time>2019-09-22T19:50:52Z</time>
      </trkpt>
      <trkpt lat="50.5979" lon="5.46649">
        <ele>67</ele>
        <time>2019-09-22T19:51:08Z</time>
      </trkpt>
      <trkpt lat="50.59748" lon="5.46565">
        <ele>68</ele>
        <time>2019-09-22T19:51:20Z</time>
      </trkpt>
      <trkpt lat="50.59628" lon="5.46255">
        <ele>67</ele>
        <time>2019-09-22T19:52:01Z</time>
      </trkpt>
      <trkpt lat="50.59574" lon="5.46107">
        <ele>68</ele>
        <time>2019-09-22T19:52:21Z</time>
      </trkpt>
      <trkpt lat="50.59447" lon="5.45788">
        <ele>66</ele>
        <time>2019-09-22T19:53:03Z</time>
      </trkpt>
      <trkpt lat="50.59376" lon="5.456">
        <ele>68</ele>
        <time>2019-09-22T19:53:28Z</time>
      </trkpt>
      <trkpt lat="50.59319" lon="5.45501">
        <ele>67</ele>
        <time>2019-09-22T19:53:43Z</time>
      </trkpt>
      <trkpt lat="50.59293" lon="5.4545">
        <ele>67</ele>
        <time>2019-09-22T19:53:50Z</time>
      </trkpt>
      <trkpt lat="50.59281" lon="5.45419">
        <ele>67</ele>
        <time>2019-09-22T19:53:54Z</time>
      </trkpt>
      <trkpt lat="50.59259" lon="5.45316">
        <ele>64</ele>
        <time>2019-09-22T19:54:07Z</time>
      </trkpt>
      <trkpt lat="50.59253" lon="5.45298">
        <ele>64</ele>
        <time>2019-09-22T19:54:09Z</time>
      </trkpt>
      <trkpt lat="50.59242" lon="5.45289">
        <ele>64</ele>
        <time>2019-09-22T19:54:11Z</time>
      </trkpt>
      <trkpt lat="50.59242" lon="5.45237">
        <ele>64</ele>
        <time>2019-09-22T19:54:17Z</time>
      </trkpt>
      <trkpt lat="50.59225" lon="5.4511">
        <ele>66</ele>
        <time>2019-09-22T19:54:32Z</time>
      </trkpt>
      <trkpt lat="50.59199" lon="5.44954">
        <ele>65</ele>
        <time>2019-09-22T19:54:50Z</time>
      </trkpt>
      <trkpt lat="50.59185" lon="5.44891">
        <ele>65</ele>
        <time>2019-09-22T19:54:57Z</time>
      </trkpt>
      <trkpt lat="50.59173" lon="5.44853">
        <ele>64</ele>
        <time>2019-09-22T19:55:02Z</time>
      </trkpt>
      <trkpt lat="50.59145" lon="5.44787">
        <ele>64</ele>
        <time>2019-09-22T19:55:11Z</time>
      </trkpt>
      <trkpt lat="50.59109" lon="5.44717">
        <ele>65</ele>
        <time>2019-09-22T19:55:21Z</time>
      </trkpt>
      <trkpt lat="50.59073" lon="5.44637">
        <ele>66</ele>
        <time>2019-09-22T19:55:32Z</time>
      </trkpt>
      <trkpt lat="50.59046" lon="5.44568">
        <ele>67</ele>
        <time>2019-09-22T19:55:42Z</time>
      </trkpt>
      <trkpt lat="50.59029" lon="5.44486">
        <ele>67</ele>
        <time>2019-09-22T19:55:51Z</time>
      </trkpt>
      <trkpt lat="50.5899" lon="5.44289">
        <ele>71</ele>
        <time>2019-09-22T19:56:15Z</time>
      </trkpt>
      <trkpt lat="50.58977" lon="5.44207">
        <ele>71</ele>
        <time>2019-09-22T19:56:24Z</time>
      </trkpt>
      <trkpt lat="50.5891" lon="5.43725">
        <ele>69</ele>
        <time>2019-09-22T19:57:20Z</time>
      </trkpt>
      <trkpt lat="50.58886" lon="5.43439">
        <ele>71</ele>
        <time>2019-09-22T19:57:53Z</time>
      </trkpt>
      <trkpt lat="50.58876" lon="5.43336">
        <ele>72</ele>
        <time>2019-09-22T19:58:04Z</time>
      </trkpt>
      <trkpt lat="50.58867" lon="5.43276">
        <ele>73</ele>
        <time>2019-09-22T19:58:11Z</time>
      </trkpt>
      <trkpt lat="50.5876" lon="5.42834">
        <ele>65</ele>
        <time>2019-09-22T19:59:05Z</time>
      </trkpt>
      <trkpt lat="50.5871" lon="5.42637">
        <ele>64</ele>
        <time>2019-09-22T19:59:29Z</time>
      </trkpt>
      <trkpt lat="50.587" lon="5.42585">
        <ele>63</ele>
        <time>2019-09-22T19:59:35Z</time>
      </trkpt>
      <trkpt lat="50.58685" lon="5.42474">
        <ele>65</ele>
        <time>2019-09-22T19:59:48Z</time>
      </trkpt>
      <trkpt lat="50.58612" lon="5.41771">
        <ele>66</ele>
        <time>2019-09-22T20:01:08Z</time>
      </trkpt>
      <trkpt lat="50.5861" lon="5.41729">
        <ele>66</ele>
        <time>2019-09-22T20:01:13Z</time>
      </trkpt>
      <trkpt lat="50.58614" lon="5.41574">
        <ele>68</ele>
        <time>2019-09-22T20:01:30Z</time>
      </trkpt>
      <trkpt lat="50.58612" lon="5.41543">
        <ele>68</ele>
        <time>2019-09-22T20:01:34Z</time>
      </trkpt>
      <trkpt lat="50.58607" lon="5.41515">
        <ele>68</ele>
        <time>2019-09-22T20:01:37Z</time>
      </trkpt>
      <trkpt lat="50.58596" lon="5.41483">
        <ele>68</ele>
        <time>2019-09-22T20:01:41Z</time>
      </trkpt>
      <trkpt lat="50.58557" lon="5.41412">
        <ele>67</ele>
        <time>2019-09-22T20:01:52Z</time>
      </trkpt>
      <trkpt lat="50.58427" lon="5.41193">
        <ele>71</ele>
        <time>2019-09-22T20:02:26Z</time>
      </trkpt>
      <trkpt lat="50.58328" lon="5.40988">
        <ele>67</ele>
        <time>2019-09-22T20:02:55Z</time>
      </trkpt>
      <trkpt lat="50.58272" lon="5.40848">
        <ele>67</ele>
        <time>2019-09-22T20:03:14Z</time>
      </trkpt>
      <trkpt lat="50.58235" lon="5.40741">
        <ele>68</ele>
        <time>2019-09-22T20:03:27Z</time>
      </trkpt>
      <trkpt lat="50.58166" lon="5.40556">
        <ele>66</ele>
        <time>2019-09-22T20:03:52Z</time>
      </trkpt>
      <trkpt lat="50.58044" lon="5.4025">
        <ele>67</ele>
        <time>2019-09-22T20:04:32Z</time>
      </trkpt>
      <trkpt lat="50.5802" lon="5.40172">
        <ele>66</ele>
        <time>2019-09-22T20:04:42Z</time>
      </trkpt>
      <trkpt lat="50.57888" lon="5.39784">
        <ele>66</ele>
        <time>2019-09-22T20:05:32Z</time>
      </trkpt>
      <trkpt lat="50.57892" lon="5.39767">
        <ele>66</ele>
        <time>2019-09-22T20:05:34Z</time>
      </trkpt>
      <trkpt lat="50.5789" lon="5.39751">
        <ele>66</ele>
        <time>2019-09-22T20:05:36Z</time>
      </trkpt>
      <trkpt lat="50.57933" lon="5.39691">
        <ele>67</ele>
        <time>2019-09-22T20:05:46Z</time>
      </trkpt>
      <trkpt lat="50.57952" lon="5.39645">
        <ele>69</ele>
        <time>2019-09-22T20:05:52Z</time>
      </trkpt>
      <trkpt lat="50.57957" lon="5.39603">
        <ele>70</ele>
        <time>2019-09-22T20:05:57Z</time>
      </trkpt>
      <trkpt lat="50.57957" lon="5.39579">
        <ele>71</ele>
        <time>2019-09-22T20:06:00Z</time>
      </trkpt>
      <trkpt lat="50.57953" lon="5.39547">
        <ele>71</ele>
        <time>2019-09-22T20:06:03Z</time>
      </trkpt>
      <trkpt lat="50.57947" lon="5.39525">
        <ele>72</ele>
        <time>2019-09-22T20:06:06Z</time>
      </trkpt>
      <trkpt lat="50.57896" lon="5.39408">
        <ele>71</ele>
        <time>2019-09-22T20:06:22Z</time>
      </trkpt>
      <trkpt lat="50.57883" lon="5.39376">
        <ele>72</ele>
        <time>2019-09-22T20:06:26Z</time>
      </trkpt>
      <trkpt lat="50.57875" lon="5.39348">
        <ele>73</ele>
        <time>2019-09-22T20:06:30Z</time>
      </trkpt>
      <trkpt lat="50.57873" lon="5.39317">
        <ele>75</ele>
        <time>2019-09-22T20:06:33Z</time>
      </trkpt>
      <trkpt lat="50.57874" lon="5.39241">
        <ele>81</ele>
        <time>2019-09-22T20:06:42Z</time>
      </trkpt>
      <trkpt lat="50.57868" lon="5.39197">
        <ele>84</ele>
        <time>2019-09-22T20:06:47Z</time>
      </trkpt>
      <trkpt lat="50.57852" lon="5.39158">
        <ele>84</ele>
        <time>2019-09-22T20:06:52Z</time>
      </trkpt>
      <trkpt lat="50.57761" lon="5.39005">
        <ele>81</ele>
        <time>2019-09-22T20:07:16Z</time>
      </trkpt>
      <trkpt lat="50.57659" lon="5.38827">
        <ele>79</ele>
        <time>2019-09-22T20:07:43Z</time>
      </trkpt>
      <trkpt lat="50.5758" lon="5.38669">
        <ele>83</ele>
        <time>2019-09-22T20:08:06Z</time>
      </trkpt>
      <trkpt lat="50.5737" lon="5.38315">
        <ele>84</ele>
        <time>2019-09-22T20:09:01Z</time>
      </trkpt>
      <trkpt lat="50.57309" lon="5.38194">
        <ele>84</ele>
        <time>2019-09-22T20:09:18Z</time>
      </trkpt>
      <trkpt lat="50.57251" lon="5.3804">
        <ele>75</ele>
        <time>2019-09-22T20:09:38Z</time>
      </trkpt>
      <trkpt lat="50.57225" lon="5.37978">
        <ele>76</ele>
        <time>2019-09-22T20:09:47Z</time>
      </trkpt>
      <trkpt lat="50.57132" lon="5.37788">
        <ele>80</ele>
        <time>2019-09-22T20:10:14Z</time>
      </trkpt>
      <trkpt lat="50.56994" lon="5.37386">
        <ele>79</ele>
        <time>2019-09-22T20:11:05Z</time>
      </trkpt>
      <trkpt lat="50.56922" lon="5.37169">
        <ele>76</ele>
        <time>2019-09-22T20:11:33Z</time>
      </trkpt>
      <trkpt lat="50.56878" lon="5.36998">
        <ele>81</ele>
        <time>2019-09-22T20:11:54Z</time>
      </trkpt>
      <trkpt lat="50.56838" lon="5.36829">
        <ele>81</ele>
        <time>2019-09-22T20:12:14Z</time>
      </trkpt>
      <trkpt lat="50.56752" lon="5.365">
        <ele>75</ele>
        <time>2019-09-22T20:12:55Z</time>
      </trkpt>
      <trkpt lat="50.56695" lon="5.36195">
        <ele>79</ele>
        <time>2019-09-22T20:13:30Z</time>
      </trkpt>
      <trkpt lat="50.56663" lon="5.36061">
        <ele>74</ele>
        <time>2019-09-22T20:13:47Z</time>
      </trkpt>
      <trkpt lat="50.56619" lon="5.35901">
        <ele>73</ele>
        <time>2019-09-22T20:14:06Z</time>
      </trkpt>
      <trkpt lat="50.56392" lon="5.35125">
        <ele>70</ele>
        <time>2019-09-22T20:15:43Z</time>
      </trkpt>
      <trkpt lat="50.56324" lon="5.3491">
        <ele>71</ele>
        <time>2019-09-22T20:16:10Z</time>
      </trkpt>
      <trkpt lat="50.56251" lon="5.34706">
        <ele>76</ele>
        <time>2019-09-22T20:16:37Z</time>
      </trkpt>
      <trkpt lat="50.56174" lon="5.345">
        <ele>78</ele>
        <time>2019-09-22T20:17:04Z</time>
      </trkpt>
      <trkpt lat="50.56144" lon="5.34409">
        <ele>78</ele>
        <time>2019-09-22T20:17:15Z</time>
      </trkpt>
      <trkpt lat="50.55997" lon="5.34013">
        <ele>83</ele>
        <time>2019-09-22T20:18:07Z</time>
      </trkpt>
      <trkpt lat="50.55975" lon="5.33978">
        <ele>82</ele>
        <time>2019-09-22T20:18:13Z</time>
      </trkpt>
      <trkpt lat="50.55943" lon="5.33955">
        <ele>76</ele>
        <time>2019-09-22T20:18:19Z</time>
      </trkpt>
      <trkpt lat="50.55919" lon="5.33929">
        <ele>71</ele>
        <time>2019-09-22T20:18:24Z</time>
      </trkpt>
      <trkpt lat="50.55639" lon="5.33352">
        <ele>86</ele>
        <time>2019-09-22T20:19:46Z</time>
      </trkpt>
      <trkpt lat="50.55608" lon="5.33296">
        <ele>85</ele>
        <time>2019-09-22T20:19:54Z</time>
      </trkpt>
      <trkpt lat="50.55524" lon="5.33198">
        <ele>81</ele>
        <time>2019-09-22T20:20:13Z</time>
      </trkpt>
      <trkpt lat="50.55421" lon="5.33012">
        <ele>77</ele>
        <time>2019-09-22T20:20:41Z</time>
      </trkpt>
      <trkpt lat="50.55376" lon="5.32927">
        <ele>82</ele>
        <time>2019-09-22T20:20:53Z</time>
      </trkpt>
      <trkpt lat="50.55347" lon="5.32864">
        <ele>81</ele>
        <time>2019-09-22T20:21:02Z</time>
      </trkpt>
      <trkpt lat="50.55294" lon="5.32719">
        <ele>82</ele>
        <time>2019-09-22T20:21:21Z</time>
      </trkpt>
      <trkpt lat="50.55267" lon="5.32658">
        <ele>77</ele>
        <time>2019-09-22T20:21:30Z</time>
      </trkpt>
      <trkpt lat="50.55225" lon="5.32582">
        <ele>74</ele>
        <time>2019-09-22T20:21:41Z</time>
      </trkpt>
      <trkpt lat="50.55006" lon="5.32207">
        <ele>71</ele>
        <time>2019-09-22T20:22:39Z</time>
      </trkpt>
      <trkpt lat="50.54949" lon="5.32287">
        <ele>69</ele>
        <time>2019-09-22T20:22:52Z</time>
      </trkpt>
      <trkpt lat="50.54847" lon="5.32442">
        <ele>69</ele>
        <time>2019-09-22T20:23:17Z</time>
      </trkpt>
      <trkpt lat="50.54818" lon="5.3248">
        <ele>69</ele>
        <time>2019-09-22T20:23:24Z</time>
      </trkpt>
      <trkpt lat="50.54794" lon="5.32495">
        <ele>69</ele>
        <time>2019-09-22T20:23:29Z</time>
      </trkpt>
      <trkpt lat="50.54667" lon="5.32541">
        <ele>68</ele>
        <time>2019-09-22T20:23:52Z</time>
      </trkpt>
      <trkpt lat="50.54638" lon="5.32554">
        <ele>67</ele>
        <time>2019-09-22T20:23:57Z</time>
      </trkpt>
      <trkpt lat="50.54607" lon="5.3258">
        <ele>67</ele>
        <time>2019-09-22T20:24:03Z</time>
      </trkpt>
      <trkpt lat="50.54602" lon="5.32588">
        <ele>67</ele>
        <time>2019-09-22T20:24:05Z</time>
      </trkpt>
      <trkpt lat="50.54592" lon="5.32606">
        <ele>67</ele>
        <time>2019-09-22T20:24:07Z</time>
      </trkpt>
      <trkpt lat="50.54576" lon="5.32665">
        <ele>67</ele>
        <time>2019-09-22T20:24:15Z</time>
      </trkpt>
      <trkpt lat="50.54556" lon="5.32964">
        <ele>68</ele>
        <time>2019-09-22T20:24:49Z</time>
      </trkpt>
      <trkpt lat="50.54546" lon="5.32987">
        <ele>68</ele>
        <time>2019-09-22T20:24:52Z</time>
      </trkpt>
      <trkpt lat="50.54534" lon="5.32997">
        <ele>68</ele>
        <time>2019-09-22T20:24:54Z</time>
      </trkpt>
      <trkpt lat="50.54527" lon="5.33012">
        <ele>68</ele>
        <time>2019-09-22T20:24:56Z</time>
      </trkpt>
      <trkpt lat="50.54524" lon="5.33029">
        <ele>68</ele>
        <time>2019-09-22T20:24:58Z</time>
      </trkpt>
      <trkpt lat="50.54516" lon="5.33051">
        <ele>68</ele>
        <time>2019-09-22T20:25:01Z</time>
      </trkpt>
      <trkpt lat="50.54509" lon="5.33064">
        <ele>69</ele>
        <time>2019-09-22T20:25:03Z</time>
      </trkpt>
      <trkpt lat="50.54308" lon="5.33358">
        <ele>66</ele>
        <time>2019-09-22T20:25:52Z</time>
      </trkpt>
      <trkpt lat="50.543" lon="5.33398">
        <ele>68</ele>
        <time>2019-09-22T20:25:57Z</time>
      </trkpt>
      <trkpt lat="50.54305" lon="5.33426">
        <ele>69</ele>
        <time>2019-09-22T20:26:00Z</time>
      </trkpt>
      <trkpt lat="50.54337" lon="5.33476">
        <ele>68</ele>
        <time>2019-09-22T20:26:08Z</time>
      </trkpt>
      <trkpt lat="50.54346" lon="5.33494">
        <ele>68</ele>
        <time>2019-09-22T20:26:11Z</time>
      </trkpt>
      <trkpt lat="50.54348" lon="5.33509">
        <ele>68</ele>
        <time>2019-09-22T20:26:12Z</time>
      </trkpt>
      <trkpt lat="50.54348" lon="5.33519">
        <ele>69</ele>
        <time>2019-09-22T20:26:13Z</time>
      </trkpt>
      <trkpt lat="50.54342" lon="5.33534">
        <ele>69</ele>
        <time>2019-09-22T20:26:15Z</time>
      </trkpt>
      <trkpt lat="50.54324" lon="5.33554">
        <ele>71</ele>
        <time>2019-09-22T20:26:19Z</time>
      </trkpt>
      <trkpt lat="50.54335" lon="5.33612">
        <ele>74</ele>
        <time>2019-09-22T20:26:26Z</time>
      </trkpt>
      <trkpt lat="50.54339" lon="5.33647">
        <ele>75</ele>
        <time>2019-09-22T20:26:30Z</time>
      </trkpt>
      <trkpt lat="50.54407" lon="5.33753">
        <ele>77</ele>
        <time>2019-09-22T20:26:47Z</time>
      </trkpt>
      <trkpt lat="50.54431" lon="5.33803">
        <ele>81</ele>
        <time>2019-09-22T20:26:54Z</time>
      </trkpt>
      <trkpt lat="50.54461" lon="5.33894">
        <ele>84</ele>
        <time>2019-09-22T20:27:06Z</time>
      </trkpt>
      <trkpt lat="50.54501" lon="5.34033">
        <ele>86</ele>
        <time>2019-09-22T20:27:23Z</time>
      </trkpt>
      <trkpt lat="50.54495" lon="5.34041">
        <ele>85</ele>
        <time>2019-09-22T20:27:25Z</time>
      </trkpt>
      <trkpt lat="50.54203" lon="5.34305">
        <ele>90</ele>
        <time>2019-09-22T20:28:25Z</time>
      </trkpt>
      <trkpt lat="50.54185" lon="5.34317">
        <ele>92</ele>
        <time>2019-09-22T20:28:28Z</time>
      </trkpt>
      <trkpt lat="50.54165" lon="5.34326">
        <ele>93</ele>
        <time>2019-09-22T20:28:32Z</time>
      </trkpt>
      <trkpt lat="50.54137" lon="5.34333">
        <ele>95</ele>
        <time>2019-09-22T20:28:37Z</time>
      </trkpt>
      <trkpt lat="50.54121" lon="5.34334">
        <ele>96</ele>
        <time>2019-09-22T20:28:40Z</time>
      </trkpt>
      <trkpt lat="50.54063" lon="5.34359">
        <ele>102</ele>
        <time>2019-09-22T20:28:50Z</time>
      </trkpt>
      <trkpt lat="50.54037" lon="5.3438">
        <ele>102</ele>
        <time>2019-09-22T20:28:56Z</time>
      </trkpt>
      <trkpt lat="50.5403" lon="5.34392">
        <ele>103</ele>
        <time>2019-09-22T20:28:57Z</time>
      </trkpt>
      <trkpt lat="50.54012" lon="5.34437">
        <ele>104</ele>
        <time>2019-09-22T20:29:03Z</time>
      </trkpt>
      <trkpt lat="50.53995" lon="5.34494">
        <ele>106</ele>
        <time>2019-09-22T20:29:11Z</time>
      </trkpt>
      <trkpt lat="50.53926" lon="5.34695">
        <ele>110</ele>
        <time>2019-09-22T20:29:36Z</time>
      </trkpt>
      <trkpt lat="50.53894" lon="5.3477">
        <ele>115</ele>
        <time>2019-09-22T20:29:47Z</time>
      </trkpt>
      <trkpt lat="50.53842" lon="5.34879">
        <ele>108</ele>
        <time>2019-09-22T20:30:02Z</time>
      </trkpt>
      <trkpt lat="50.53814" lon="5.34929">
        <ele>108</ele>
        <time>2019-09-22T20:30:10Z</time>
      </trkpt>
      <trkpt lat="50.53741" lon="5.35034">
        <ele>110</ele>
        <time>2019-09-22T20:30:27Z</time>
      </trkpt>
      <trkpt lat="50.53722" lon="5.35052">
        <ele>110</ele>
        <time>2019-09-22T20:30:31Z</time>
      </trkpt>
      <trkpt lat="50.53681" lon="5.35085">
        <ele>107</ele>
        <time>2019-09-22T20:30:39Z</time>
      </trkpt>
      <trkpt lat="50.53667" lon="5.35093">
        <ele>106</ele>
        <time>2019-09-22T20:30:42Z</time>
      </trkpt>
      <trkpt lat="50.53656" lon="5.35104">
        <ele>107</ele>
        <time>2019-09-22T20:30:44Z</time>
      </trkpt>
      <trkpt lat="50.53639" lon="5.35099">
        <ele>108</ele>
        <time>2019-09-22T20:30:47Z</time>
      </trkpt>
      <trkpt lat="50.5363" lon="5.35092">
        <ele>109</ele>
        <time>2019-09-22T20:30:49Z</time>
      </trkpt>
      <trkpt lat="50.53611" lon="5.3507">
        <ele>109</ele>
        <time>2019-09-22T20:30:53Z</time>
      </trkpt>
      <trkpt lat="50.53592" lon="5.35037">
        <ele>110</ele>
        <time>2019-09-22T20:30:58Z</time>
      </trkpt>
      <trkpt lat="50.53569" lon="5.34986">
        <ele>111</ele>
        <time>2019-09-22T20:31:05Z</time>
      </trkpt>
      <trkpt lat="50.53535" lon="5.34921">
        <ele>115</ele>
        <time>2019-09-22T20:31:15Z</time>
      </trkpt>
      <trkpt lat="50.53511" lon="5.34861">
        <ele>119</ele>
        <time>2019-09-22T20:31:23Z</time>
      </trkpt>
      <trkpt lat="50.53498" lon="5.34814">
        <ele>121</ele>
        <time>2019-09-22T20:31:29Z</time>
      </trkpt>
      <trkpt lat="50.53493" lon="5.34779">
        <ele>123</ele>
        <time>2019-09-22T20:31:33Z</time>
      </trkpt>
      <trkpt lat="50.5347" lon="5.34517">
        <ele>128</ele>
        <time>2019-09-22T20:32:03Z</time>
      </trkpt>
      <trkpt lat="50.53461" lon="5.34446">
        <ele>127</ele>
        <time>2019-09-22T20:32:11Z</time>
      </trkpt>
      <trkpt lat="50.53454" lon="5.34416">
        <ele>127</ele>
        <time>2019-09-22T20:32:14Z</time>
      </trkpt>
      <trkpt lat="50.53439" lon="5.34374">
        <ele>127</ele>
        <time>2019-09-22T20:32:20Z</time>
      </trkpt>
      <trkpt lat="50.53319" lon="5.34124">
        <ele>130</ele>
        <time>2019-09-22T20:32:55Z</time>
      </trkpt>
      <trkpt lat="50.5326" lon="5.34035">
        <ele>134</ele>
        <time>2019-09-22T20:33:10Z</time>
      </trkpt>
      <trkpt lat="50.53181" lon="5.33947">
        <ele>132</ele>
        <time>2019-09-22T20:33:27Z</time>
      </trkpt>
      <trkpt lat="50.53171" lon="5.33921">
        <ele>127</ele>
        <time>2019-09-22T20:33:31Z</time>
      </trkpt>
      <trkpt lat="50.53159" lon="5.33831">
        <ele>129</ele>
        <time>2019-09-22T20:33:41Z</time>
      </trkpt>
      <trkpt lat="50.53152" lon="5.33806">
        <ele>134</ele>
        <time>2019-09-22T20:33:44Z</time>
      </trkpt>
      <trkpt lat="50.53123" lon="5.33793">
        <ele>137</ele>
        <time>2019-09-22T20:33:49Z</time>
      </trkpt>
      <trkpt lat="50.53101" lon="5.33789">
        <ele>138</ele>
        <time>2019-09-22T20:33:53Z</time>
      </trkpt>
      <trkpt lat="50.53041" lon="5.33769">
        <ele>139</ele>
        <time>2019-09-22T20:34:04Z</time>
      </trkpt>
      <trkpt lat="50.5298" lon="5.33741">
        <ele>137</ele>
        <time>2019-09-22T20:34:16Z</time>
      </trkpt>
      <trkpt lat="50.52966" lon="5.33728">
        <ele>138</ele>
        <time>2019-09-22T20:34:18Z</time>
      </trkpt>
      <trkpt lat="50.52926" lon="5.33674">
        <ele>138</ele>
        <time>2019-09-22T20:34:28Z</time>
      </trkpt>
      <trkpt lat="50.52914" lon="5.33663">
        <ele>138</ele>
        <time>2019-09-22T20:34:30Z</time>
      </trkpt>
      <trkpt lat="50.52839" lon="5.33624">
        <ele>140</ele>
        <time>2019-09-22T20:34:44Z</time>
      </trkpt>
      <trkpt lat="50.52795" lon="5.33597">
        <ele>143</ele>
        <time>2019-09-22T20:34:53Z</time>
      </trkpt>
      <trkpt lat="50.52783" lon="5.33597">
        <ele>143</ele>
        <time>2019-09-22T20:34:55Z</time>
      </trkpt>
      <trkpt lat="50.527" lon="5.3363">
        <ele>143</ele>
        <time>2019-09-22T20:35:10Z</time>
      </trkpt>
      <trkpt lat="50.52651" lon="5.33655">
        <ele>145</ele>
        <time>2019-09-22T20:35:19Z</time>
      </trkpt>
      <trkpt lat="50.5263" lon="5.33671">
        <ele>148</ele>
        <time>2019-09-22T20:35:23Z</time>
      </trkpt>
      <trkpt lat="50.52607" lon="5.33708">
        <ele>152</ele>
        <time>2019-09-22T20:35:29Z</time>
      </trkpt>
      <trkpt lat="50.52547" lon="5.33854">
        <ele>151</ele>
        <time>2019-09-22T20:35:49Z</time>
      </trkpt>
      <trkpt lat="50.52536" lon="5.33872">
        <ele>151</ele>
        <time>2019-09-22T20:35:52Z</time>
      </trkpt>
      <trkpt lat="50.52309" lon="5.3401">
        <ele>160</ele>
        <time>2019-09-22T20:36:35Z</time>
      </trkpt>
      <trkpt lat="50.52261" lon="5.34038">
        <ele>162</ele>
        <time>2019-09-22T20:36:44Z</time>
      </trkpt>
      <trkpt lat="50.52208" lon="5.34065">
        <ele>157</ele>
        <time>2019-09-22T20:36:54Z</time>
      </trkpt>
      <trkpt lat="50.52158" lon="5.34103">
        <ele>152</ele>
        <time>2019-09-22T20:37:04Z</time>
      </trkpt>
      <trkpt lat="50.52112" lon="5.34154">
        <ele>156</ele>
        <time>2019-09-22T20:37:14Z</time>
      </trkpt>
      <trkpt lat="50.52103" lon="5.34159">
        <ele>157</ele>
        <time>2019-09-22T20:37:16Z</time>
      </trkpt>
      <trkpt lat="50.52082" lon="5.34158">
        <ele>158</ele>
        <time>2019-09-22T20:37:19Z</time>
      </trkpt>
      <trkpt lat="50.52053" lon="5.34122">
        <ele>160</ele>
        <time>2019-09-22T20:37:26Z</time>
      </trkpt>
      <trkpt lat="50.51991" lon="5.34025">
        <ele>155</ele>
        <time>2019-09-22T20:37:42Z</time>
      </trkpt>
      <trkpt lat="50.51892" lon="5.33878">
        <ele>161</ele>
        <time>2019-09-22T20:38:06Z</time>
      </trkpt>
      <trkpt lat="50.51847" lon="5.33815">
        <ele>164</ele>
        <time>2019-09-22T20:38:17Z</time>
      </trkpt>
      <trkpt lat="50.51768" lon="5.33713">
        <ele>171</ele>
        <time>2019-09-22T20:38:35Z</time>
      </trkpt>
      <trkpt lat="50.51717" lon="5.33628">
        <ele>169</ele>
        <time>2019-09-22T20:38:48Z</time>
      </trkpt>
      <trkpt lat="50.51679" lon="5.33575">
        <ele>168</ele>
        <time>2019-09-22T20:38:57Z</time>
      </trkpt>
      <trkpt lat="50.51654" lon="5.33561">
        <ele>169</ele>
        <time>2019-09-22T20:39:02Z</time>
      </trkpt>
      <trkpt lat="50.5164" lon="5.33561">
        <ele>169</ele>
        <time>2019-09-22T20:39:04Z</time>
      </trkpt>
      <trkpt lat="50.51628" lon="5.33564">
        <ele>170</ele>
        <time>2019-09-22T20:39:06Z</time>
      </trkpt>
      <trkpt lat="50.51621" lon="5.3357">
        <ele>170</ele>
        <time>2019-09-22T20:39:08Z</time>
      </trkpt>
      <trkpt lat="50.5161" lon="5.33586">
        <ele>170</ele>
        <time>2019-09-22T20:39:10Z</time>
      </trkpt>
      <trkpt lat="50.51601" lon="5.33617">
        <ele>172</ele>
        <time>2019-09-22T20:39:14Z</time>
      </trkpt>
      <trkpt lat="50.51593" lon="5.33658">
        <ele>174</ele>
        <time>2019-09-22T20:39:19Z</time>
      </trkpt>
      <trkpt lat="50.51543" lon="5.33769">
        <ele>181</ele>
        <time>2019-09-22T20:39:35Z</time>
      </trkpt>
      <trkpt lat="50.51493" lon="5.33854">
        <ele>179</ele>
        <time>2019-09-22T20:39:48Z</time>
      </trkpt>
      <trkpt lat="50.51462" lon="5.33886">
        <ele>182</ele>
        <time>2019-09-22T20:39:54Z</time>
      </trkpt>
      <trkpt lat="50.51419" lon="5.33919">
        <ele>180</ele>
        <time>2019-09-22T20:40:03Z</time>
      </trkpt>
      <trkpt lat="50.514" lon="5.33928">
        <ele>181</ele>
        <time>2019-09-22T20:40:06Z</time>
      </trkpt>
      <trkpt lat="50.51374" lon="5.33915">
        <ele>182</ele>
        <time>2019-09-22T20:40:11Z</time>
      </trkpt>
      <trkpt lat="50.5134" lon="5.33904">
        <ele>184</ele>
        <time>2019-09-22T20:40:17Z</time>
      </trkpt>
      <trkpt lat="50.51278" lon="5.33899">
        <ele>190</ele>
        <time>2019-09-22T20:40:28Z</time>
      </trkpt>
      <trkpt lat="50.51087" lon="5.33901">
        <ele>204</ele>
        <time>2019-09-22T20:41:02Z</time>
      </trkpt>
      <trkpt lat="50.51016" lon="5.33913">
        <ele>201</ele>
        <time>2019-09-22T20:41:15Z</time>
      </trkpt>
      <trkpt lat="50.50995" lon="5.33914">
        <ele>200</ele>
        <time>2019-09-22T20:41:19Z</time>
      </trkpt>
      <trkpt lat="50.50977" lon="5.33908">
        <ele>201</ele>
        <time>2019-09-22T20:41:22Z</time>
      </trkpt>
      <trkpt lat="50.5096" lon="5.33898">
        <ele>202</ele>
        <time>2019-09-22T20:41:25Z</time>
      </trkpt>
      <trkpt lat="50.50947" lon="5.33884">
        <ele>202</ele>
        <time>2019-09-22T20:41:28Z</time>
      </trkpt>
      <trkpt lat="50.50848" lon="5.33652">
        <ele>205</ele>
        <time>2019-09-22T20:42:00Z</time>
      </trkpt>
      <trkpt lat="50.50805" lon="5.33546">
        <ele>205</ele>
        <time>2019-09-22T20:42:14Z</time>
      </trkpt>
      <trkpt lat="50.50772" lon="5.33417">
        <ele>208</ele>
        <time>2019-09-22T20:42:30Z</time>
      </trkpt>
      <trkpt lat="50.50737" lon="5.33318">
        <ele>214</ele>
        <time>2019-09-22T20:42:42Z</time>
      </trkpt>
      <trkpt lat="50.50718" lon="5.33288">
        <ele>215</ele>
        <time>2019-09-22T20:42:47Z</time>
      </trkpt>
      <trkpt lat="50.50692" lon="5.33261">
        <ele>214</ele>
        <time>2019-09-22T20:42:53Z</time>
      </trkpt>
      <trkpt lat="50.5068" lon="5.33255">
        <ele>213</ele>
        <time>2019-09-22T20:42:55Z</time>
      </trkpt>
      <trkpt lat="50.50609" lon="5.33197">
        <ele>216</ele>
        <time>2019-09-22T20:43:09Z</time>
      </trkpt>
      <trkpt lat="50.50503" lon="5.32874">
        <ele>224</ele>
        <time>2019-09-22T20:43:50Z</time>
      </trkpt>
      <trkpt lat="50.50497" lon="5.32845">
        <ele>224</ele>
        <time>2019-09-22T20:43:54Z</time>
      </trkpt>
      <trkpt lat="50.50494" lon="5.32812">
        <ele>224</ele>
        <time>2019-09-22T20:43:58Z</time>
      </trkpt>
      <trkpt lat="50.50495" lon="5.32773">
        <ele>223</ele>
        <time>2019-09-22T20:44:02Z</time>
      </trkpt>
      <trkpt lat="50.50502" lon="5.32691">
        <ele>221</ele>
        <time>2019-09-22T20:44:11Z</time>
      </trkpt>
      <trkpt lat="50.50427" lon="5.32653">
        <ele>223</ele>
        <time>2019-09-22T20:44:25Z</time>
      </trkpt>
      <trkpt lat="50.50412" lon="5.32643">
        <ele>224</ele>
        <time>2019-09-22T20:44:28Z</time>
      </trkpt>
      <trkpt lat="50.50325" lon="5.32602">
        <ele>232</ele>
        <time>2019-09-22T20:44:45Z</time>
      </trkpt>
      <trkpt lat="50.50296" lon="5.32591">
        <ele>234</ele>
        <time>2019-09-22T20:44:50Z</time>
      </trkpt>
      <trkpt lat="50.50247" lon="5.32593">
        <ele>238</ele>
        <time>2019-09-22T20:44:59Z</time>
      </trkpt>
      <trkpt lat="50.50169" lon="5.32604">
        <ele>241</ele>
        <time>2019-09-22T20:45:12Z</time>
      </trkpt>
      <trkpt lat="50.5011" lon="5.32601">
        <ele>240</ele>
        <time>2019-09-22T20:45:23Z</time>
      </trkpt>
      <trkpt lat="50.49919" lon="5.32568">
        <ele>239</ele>
        <time>2019-09-22T20:45:57Z</time>
      </trkpt>
      <trkpt lat="50.49795" lon="5.32538">
        <ele>243</ele>
        <time>2019-09-22T20:46:19Z</time>
      </trkpt>
      <trkpt lat="50.49769" lon="5.32537">
        <ele>244</ele>
        <time>2019-09-22T20:46:24Z</time>
      </trkpt>
      <trkpt lat="50.49713" lon="5.32528">
        <ele>247</ele>
        <time>2019-09-22T20:46:34Z</time>
      </trkpt>
      <trkpt lat="50.4951" lon="5.32506">
        <ele>255</ele>
        <time>2019-09-22T20:47:10Z</time>
      </trkpt>
      <trkpt lat="50.4941" lon="5.32492">
        <ele>257</ele>
        <time>2019-09-22T20:47:28Z</time>
      </trkpt>
      <trkpt lat="50.49338" lon="5.32471">
        <ele>259</ele>
        <time>2019-09-22T20:47:41Z</time>
      </trkpt>
      <trkpt lat="50.49302" lon="5.32474">
        <ele>261</ele>
        <time>2019-09-22T20:47:48Z</time>
      </trkpt>
      <trkpt lat="50.49281" lon="5.3248">
        <ele>262</ele>
        <time>2019-09-22T20:47:51Z</time>
      </trkpt>
      <trkpt lat="50.49189" lon="5.32519">
        <ele>266</ele>
        <time>2019-09-22T20:48:08Z</time>
      </trkpt>
      <trkpt lat="50.49168" lon="5.32521">
        <ele>267</ele>
        <time>2019-09-22T20:48:12Z</time>
      </trkpt>
      <trkpt lat="50.49139" lon="5.32538">
        <ele>267</ele>
        <time>2019-09-22T20:48:18Z</time>
      </trkpt>
      <trkpt lat="50.49097" lon="5.32299">
        <ele>267</ele>
        <time>2019-09-22T20:48:46Z</time>
      </trkpt>
      <trkpt lat="50.49063" lon="5.32316">
        <ele>268</ele>
        <time>2019-09-22T20:48:52Z</time>
      </trkpt>
      <trkpt lat="50.49055" lon="5.32307">
        <ele>268</ele>
        <time>2019-09-22T20:48:54Z</time>
      </trkpt>
      <trkpt lat="50.49045" lon="5.32318">
        <ele>269</ele>
        <time>2019-09-22T20:48:56Z</time>
      </trkpt>
      <trkpt lat="50.49023" lon="5.32333">
        <ele>269</ele>
        <time>2019-09-22T20:49:00Z</time>
      </trkpt>
      <trkpt lat="50.48924" lon="5.3234">
        <ele>266</ele>
        <time>2019-09-22T20:49:18Z</time>
      </trkpt>
      <trkpt lat="50.48899" lon="5.3236">
        <ele>264</ele>
        <time>2019-09-22T20:49:23Z</time>
      </trkpt>
      <trkpt lat="50.48871" lon="5.32421">
        <ele>259</ele>
        <time>2019-09-22T20:49:31Z</time>
      </trkpt>
      <trkpt lat="50.48846" lon="5.32462">
        <ele>256</ele>
        <time>2019-09-22T20:49:38Z</time>
      </trkpt>
      <trkpt lat="50.488" lon="5.32529">
        <ele>250</ele>
        <time>2019-09-22T20:49:49Z</time>
      </trkpt>
      <trkpt lat="50.48772" lon="5.3258">
        <ele>246</ele>
        <time>2019-09-22T20:49:57Z</time>
      </trkpt>
      <trkpt lat="50.48746" lon="5.32662">
        <ele>244</ele>
        <time>2019-09-22T20:50:07Z</time>
      </trkpt>
      <trkpt lat="50.48663" lon="5.32684">
        <ele>241</ele>
        <time>2019-09-22T20:50:22Z</time>
      </trkpt>
      <trkpt lat="50.4811" lon="5.32869">
        <ele>249</ele>
        <time>2019-09-22T20:52:03Z</time>
      </trkpt>
      <trkpt lat="50.47983" lon="5.32909">
        <ele>254</ele>
        <time>2019-09-22T20:52:26Z</time>
      </trkpt>
      <trkpt lat="50.47599" lon="5.3304">
        <ele>275</ele>
        <time>2019-09-22T20:53:36Z</time>
      </trkpt>
      <trkpt lat="50.47302" lon="5.33132">
        <ele>262</ele>
        <time>2019-09-22T20:54:29Z</time>
      </trkpt>
      <trkpt lat="50.47276" lon="5.33142">
        <ele>262</ele>
        <time>2019-09-22T20:54:34Z</time>
      </trkpt>
      <trkpt lat="50.47192" lon="5.33182">
        <ele>261</ele>
        <time>2019-09-22T20:54:50Z</time>
      </trkpt>
      <trkpt lat="50.47145" lon="5.332">
        <ele>261</ele>
        <time>2019-09-22T20:54:58Z</time>
      </trkpt>
      <trkpt lat="50.46989" lon="5.33232">
        <ele>262</ele>
        <time>2019-09-22T20:55:26Z</time>
      </trkpt>
      <trkpt lat="50.46869" lon="5.33261">
        <ele>266</ele>
        <time>2019-09-22T20:55:48Z</time>
      </trkpt>
      <trkpt lat="50.4673" lon="5.33307">
        <ele>277</ele>
        <time>2019-09-22T20:56:13Z</time>
      </trkpt>
      <trkpt lat="50.46703" lon="5.33324">
        <ele>277</ele>
        <time>2019-09-22T20:56:18Z</time>
      </trkpt>
      <trkpt lat="50.4669" lon="5.33348">
        <ele>278</ele>
        <time>2019-09-22T20:56:22Z</time>
      </trkpt>
      <trkpt lat="50.46679" lon="5.33362">
        <ele>277</ele>
        <time>2019-09-22T20:56:25Z</time>
      </trkpt>
      <trkpt lat="50.46639" lon="5.33401">
        <ele>274</ele>
        <time>2019-09-22T20:56:33Z</time>
      </trkpt>
      <trkpt lat="50.46627" lon="5.33429">
        <ele>272</ele>
        <time>2019-09-22T20:56:37Z</time>
      </trkpt>
      <trkpt lat="50.46608" lon="5.33507">
        <ele>268</ele>
        <time>2019-09-22T20:56:46Z</time>
      </trkpt>
      <trkpt lat="50.4659" lon="5.33543">
        <ele>266</ele>
        <time>2019-09-22T20:56:51Z</time>
      </trkpt>
      <trkpt lat="50.46572" lon="5.33562">
        <ele>265</ele>
        <time>2019-09-22T20:56:55Z</time>
      </trkpt>
      <trkpt lat="50.46537" lon="5.33588">
        <ele>263</ele>
        <time>2019-09-22T20:57:02Z</time>
      </trkpt>
      <trkpt lat="50.46519" lon="5.33598">
        <ele>262</ele>
        <time>2019-09-22T20:57:05Z</time>
      </trkpt>
      <trkpt lat="50.4647" lon="5.33619">
        <ele>260</ele>
        <time>2019-09-22T20:57:15Z</time>
      </trkpt>
      <trkpt lat="50.46371" lon="5.33677">
        <ele>257</ele>
        <time>2019-09-22T20:57:33Z</time>
      </trkpt>
      <trkpt lat="50.46151" lon="5.33825">
        <ele>257</ele>
        <time>2019-09-22T20:58:16Z</time>
      </trkpt>
      <trkpt lat="50.46081" lon="5.33887">
        <ele>266</ele>
        <time>2019-09-22T20:58:30Z</time>
      </trkpt>
      <trkpt lat="50.45976" lon="5.33936">
        <ele>278</ele>
        <time>2019-09-22T20:58:50Z</time>
      </trkpt>
      <trkpt lat="50.45951" lon="5.33953">
        <ele>279</ele>
        <time>2019-09-22T20:58:55Z</time>
      </trkpt>
      <trkpt lat="50.45929" lon="5.33977">
        <ele>281</ele>
        <time>2019-09-22T20:58:59Z</time>
      </trkpt>
      <trkpt lat="50.45878" lon="5.34049">
        <ele>284</ele>
        <time>2019-09-22T20:59:12Z</time>
      </trkpt>
      <trkpt lat="50.45808" lon="5.34133">
        <ele>276</ele>
        <time>2019-09-22T20:59:27Z</time>
      </trkpt>
      <trkpt lat="50.45698" lon="5.34273">
        <ele>256</ele>
        <time>2019-09-22T20:59:52Z</time>
      </trkpt>
      <trkpt lat="50.45593" lon="5.34417">
        <ele>250</ele>
        <time>2019-09-22T21:00:17Z</time>
      </trkpt>
      <trkpt lat="50.45567" lon="5.34441">
        <ele>250</ele>
        <time>2019-09-22T21:00:23Z</time>
      </trkpt>
      <trkpt lat="50.4555" lon="5.34453">
        <ele>250</ele>
        <time>2019-09-22T21:00:26Z</time>
      </trkpt>
      <trkpt lat="50.45426" lon="5.34524">
        <ele>252</ele>
        <time>2019-09-22T21:00:49Z</time>
      </trkpt>
      <trkpt lat="50.45323" lon="5.34592">
        <ele>258</ele>
        <time>2019-09-22T21:01:09Z</time>
      </trkpt>
      <trkpt lat="50.45261" lon="5.34629">
        <ele>258</ele>
        <time>2019-09-22T21:01:21Z</time>
      </trkpt>
      <trkpt lat="50.45175" lon="5.34651">
        <ele>256</ele>
        <time>2019-09-22T21:01:37Z</time>
      </trkpt>
      <trkpt lat="50.44962" lon="5.34691">
        <ele>252</ele>
        <time>2019-09-22T21:02:15Z</time>
      </trkpt>
      <trkpt lat="50.44878" lon="5.34708">
        <ele>252</ele>
        <time>2019-09-22T21:02:30Z</time>
      </trkpt>
      <trkpt lat="50.44831" lon="5.3472">
        <ele>252</ele>
        <time>2019-09-22T21:02:38Z</time>
      </trkpt>
      <trkpt lat="50.44498" lon="5.34833">
        <ele>246</ele>
        <time>2019-09-22T21:03:39Z</time>
      </trkpt>
      <trkpt lat="50.44487" lon="5.34845">
        <ele>245</ele>
        <time>2019-09-22T21:03:41Z</time>
      </trkpt>
      <trkpt lat="50.44451" lon="5.34825">
        <ele>244</ele>
        <time>2019-09-22T21:03:48Z</time>
      </trkpt>
      <trkpt lat="50.44431" lon="5.3482">
        <ele>244</ele>
        <time>2019-09-22T21:03:52Z</time>
      </trkpt>
      <trkpt lat="50.44425" lon="5.34794">
        <ele>244</ele>
        <time>2019-09-22T21:03:55Z</time>
      </trkpt>
      <trkpt lat="50.44404" lon="5.3477">
        <ele>244</ele>
        <time>2019-09-22T21:03:59Z</time>
      </trkpt>
      <trkpt lat="50.4439" lon="5.34747">
        <ele>244</ele>
        <time>2019-09-22T21:04:03Z</time>
      </trkpt>
      <trkpt lat="50.44356" lon="5.34659">
        <ele>243</ele>
        <time>2019-09-22T21:04:15Z</time>
      </trkpt>
      <trkpt lat="50.44327" lon="5.3457">
        <ele>241</ele>
        <time>2019-09-22T21:04:26Z</time>
      </trkpt>
      <trkpt lat="50.44305" lon="5.34482">
        <ele>241</ele>
        <time>2019-09-22T21:04:37Z</time>
      </trkpt>
      <trkpt lat="50.44254" lon="5.343">
        <ele>239</ele>
        <time>2019-09-22T21:04:59Z</time>
      </trkpt>
      <trkpt lat="50.44224" lon="5.34213">
        <ele>238</ele>
        <time>2019-09-22T21:05:10Z</time>
      </trkpt>
      <trkpt lat="50.44188" lon="5.34125">
        <ele>236</ele>
        <time>2019-09-22T21:05:22Z</time>
      </trkpt>
      <trkpt lat="50.44107" lon="5.34036">
        <ele>234</ele>
        <time>2019-09-22T21:05:40Z</time>
      </trkpt>
      <trkpt lat="50.44092" lon="5.34028">
        <ele>234</ele>
        <time>2019-09-22T21:05:43Z</time>
      </trkpt>
      <trkpt lat="50.44068" lon="5.34026">
        <ele>234</ele>
        <time>2019-09-22T21:05:47Z</time>
      </trkpt>
      <trkpt lat="50.44028" lon="5.34038">
        <ele>232</ele>
        <time>2019-09-22T21:05:54Z</time>
      </trkpt>
      <trkpt lat="50.44016" lon="5.34038">
        <ele>232</ele>
        <time>2019-09-22T21:05:56Z</time>
      </trkpt>
      <trkpt lat="50.44001" lon="5.3403">
        <ele>231</ele>
        <time>2019-09-22T21:05:59Z</time>
      </trkpt>
      <trkpt lat="50.43765" lon="5.33855">
        <ele>231</ele>
        <time>2019-09-22T21:06:46Z</time>
      </trkpt>
      <trkpt lat="50.43713" lon="5.33814">
        <ele>231</ele>
        <time>2019-09-22T21:06:56Z</time>
      </trkpt>
      <trkpt lat="50.43677" lon="5.33777">
        <ele>232</ele>
        <time>2019-09-22T21:07:04Z</time>
      </trkpt>
      <trkpt lat="50.43659" lon="5.33748">
        <ele>234</ele>
        <time>2019-09-22T21:07:08Z</time>
      </trkpt>
      <trkpt lat="50.43641" lon="5.33702">
        <ele>235</ele>
        <time>2019-09-22T21:07:14Z</time>
      </trkpt>
      <trkpt lat="50.43608" lon="5.33604">
        <ele>237</ele>
        <time>2019-09-22T21:07:27Z</time>
      </trkpt>
      <trkpt lat="50.43525" lon="5.33412">
        <ele>240</ele>
        <time>2019-09-22T21:07:53Z</time>
      </trkpt>
      <trkpt lat="50.43481" lon="5.33319">
        <ele>242</ele>
        <time>2019-09-22T21:08:06Z</time>
      </trkpt>
      <trkpt lat="50.43408" lon="5.33198">
        <ele>244</ele>
        <time>2019-09-22T21:08:25Z</time>
      </trkpt>
      <trkpt lat="50.43348" lon="5.33045">
        <ele>247</ele>
        <time>2019-09-22T21:08:46Z</time>
      </trkpt>
      <trkpt lat="50.43312" lon="5.32962">
        <ele>247</ele>
        <time>2019-09-22T21:08:57Z</time>
      </trkpt>
      <trkpt lat="50.43299" lon="5.3294">
        <ele>247</ele>
        <time>2019-09-22T21:09:00Z</time>
      </trkpt>
      <trkpt lat="50.43266" lon="5.32862">
        <ele>248</ele>
        <time>2019-09-22T21:09:11Z</time>
      </trkpt>
      <trkpt lat="50.43187" lon="5.32705">
        <ele>248</ele>
        <time>2019-09-22T21:09:34Z</time>
      </trkpt>
      <trkpt lat="50.43154" lon="5.32648">
        <ele>249</ele>
        <time>2019-09-22T21:09:42Z</time>
      </trkpt>
      <trkpt lat="50.43024" lon="5.32404">
        <ele>249</ele>
        <time>2019-09-22T21:10:18Z</time>
      </trkpt>
      <trkpt lat="50.42964" lon="5.32298">
        <ele>248</ele>
        <time>2019-09-22T21:10:35Z</time>
      </trkpt>
      <trkpt lat="50.429" lon="5.322">
        <ele>245</ele>
        <time>2019-09-22T21:10:50Z</time>
      </trkpt>
      <trkpt lat="50.42882" lon="5.32161">
        <ele>244</ele>
        <time>2019-09-22T21:10:56Z</time>
      </trkpt>
      <trkpt lat="50.42795" lon="5.31908">
        <ele>240</ele>
        <time>2019-09-22T21:11:28Z</time>
      </trkpt>
      <trkpt lat="50.42741" lon="5.31763">
        <ele>235</ele>
        <time>2019-09-22T21:11:47Z</time>
      </trkpt>
      <trkpt lat="50.42731" lon="5.31728">
        <ele>234</ele>
        <time>2019-09-22T21:11:52Z</time>
      </trkpt>
      <trkpt lat="50.42731" lon="5.3169">
        <ele>234</ele>
        <time>2019-09-22T21:11:56Z</time>
      </trkpt>
      <trkpt lat="50.42753" lon="5.31583">
        <ele>231</ele>
        <time>2019-09-22T21:12:09Z</time>
      </trkpt>
      <trkpt lat="50.42754" lon="5.31562">
        <ele>231</ele>
        <time>2019-09-22T21:12:11Z</time>
      </trkpt>
      <trkpt lat="50.4275" lon="5.31525">
        <ele>230</ele>
        <time>2019-09-22T21:12:16Z</time>
      </trkpt>
      <trkpt lat="50.42739" lon="5.31492">
        <ele>229</ele>
        <time>2019-09-22T21:12:20Z</time>
      </trkpt>
      <trkpt lat="50.42751" lon="5.31481">
        <ele>229</ele>
        <time>2019-09-22T21:12:22Z</time>
      </trkpt>
      <trkpt lat="50.42824" lon="5.31454">
        <ele>233</ele>
        <time>2019-09-22T21:12:36Z</time>
      </trkpt>
      <trkpt lat="50.42859" lon="5.31439">
        <ele>236</ele>
        <time>2019-09-22T21:12:42Z</time>
      </trkpt>
      <trkpt lat="50.42864" lon="5.31433">
        <ele>237</ele>
        <time>2019-09-22T21:12:43Z</time>
      </trkpt>
      <trkpt lat="50.42887" lon="5.31424">
        <ele>238</ele>
        <time>2019-09-22T21:12:47Z</time>
      </trkpt>
      <trkpt lat="50.42908" lon="5.31426">
        <ele>239</ele>
        <time>2019-09-22T21:12:51Z</time>
      </trkpt>
      <trkpt lat="50.42958" lon="5.31422">
        <ele>241</ele>
        <time>2019-09-22T21:13:00Z</time>
      </trkpt>
      <trkpt lat="50.43021" lon="5.31405">
        <ele>244</ele>
        <time>2019-09-22T21:13:11Z</time>
      </trkpt>
      <trkpt lat="50.43103" lon="5.3139">
        <ele>247</ele>
        <time>2019-09-22T21:13:26Z</time>
      </trkpt>
      <trkpt lat="50.43167" lon="5.31375">
        <ele>246</ele>
        <time>2019-09-22T21:13:38Z</time>
      </trkpt>
      <trkpt lat="50.43204" lon="5.31362">
        <ele>244</ele>
        <time>2019-09-22T21:13:44Z</time>
      </trkpt>
      <trkpt lat="50.43284" lon="5.31339">
        <ele>241</ele>
        <time>2019-09-22T21:13:59Z</time>
      </trkpt>
      <trkpt lat="50.43308" lon="5.31328">
        <ele>241</ele>
        <time>2019-09-22T21:14:03Z</time>
      </trkpt>
      <trkpt lat="50.43327" lon="5.31309">
        <ele>240</ele>
        <time>2019-09-22T21:14:07Z</time>
      </trkpt>
      <trkpt lat="50.43371" lon="5.31272">
        <ele>241</ele>
        <time>2019-09-22T21:14:16Z</time>
      </trkpt>
      <trkpt lat="50.43593" lon="5.31051">
        <ele>230</ele>
        <time>2019-09-22T21:15:03Z</time>
      </trkpt>
      <trkpt lat="50.43663" lon="5.30985">
        <ele>231</ele>
        <time>2019-09-22T21:15:17Z</time>
      </trkpt>
      <trkpt lat="50.43747" lon="5.30915">
        <ele>234</ele>
        <time>2019-09-22T21:15:34Z</time>
      </trkpt>
      <trkpt lat="50.43803" lon="5.30877">
        <ele>234</ele>
        <time>2019-09-22T21:15:45Z</time>
      </trkpt>
      <trkpt lat="50.43819" lon="5.30873">
        <ele>234</ele>
        <time>2019-09-22T21:15:48Z</time>
      </trkpt>
      <trkpt lat="50.4401" lon="5.30087">
        <ele>234</ele>
        <time>2019-09-22T21:17:23Z</time>
      </trkpt>
      <trkpt lat="50.44032" lon="5.30018">
        <ele>234</ele>
        <time>2019-09-22T21:17:32Z</time>
      </trkpt>
      <trkpt lat="50.44051" lon="5.2998">
        <ele>234</ele>
        <time>2019-09-22T21:17:38Z</time>
      </trkpt>
      <trkpt lat="50.44062" lon="5.29963">
        <ele>234</ele>
        <time>2019-09-22T21:17:40Z</time>
      </trkpt>
      <trkpt lat="50.441" lon="5.29921">
        <ele>235</ele>
        <time>2019-09-22T21:17:49Z</time>
      </trkpt>
      <trkpt lat="50.44132" lon="5.29893">
        <ele>236</ele>
        <time>2019-09-22T21:17:55Z</time>
      </trkpt>
      <trkpt lat="50.44301" lon="5.29757">
        <ele>231</ele>
        <time>2019-09-22T21:18:29Z</time>
      </trkpt>
      <trkpt lat="50.44738" lon="5.29388">
        <ele>226</ele>
        <time>2019-09-22T21:19:57Z</time>
      </trkpt>
      <trkpt lat="50.44809" lon="5.29339">
        <ele>229</ele>
        <time>2019-09-22T21:20:11Z</time>
      </trkpt>
      <trkpt lat="50.45006" lon="5.29228">
        <ele>215</ele>
        <time>2019-09-22T21:20:48Z</time>
      </trkpt>
      <trkpt lat="50.45048" lon="5.29187">
        <ele>212</ele>
        <time>2019-09-22T21:20:57Z</time>
      </trkpt>
      <trkpt lat="50.45061" lon="5.29165">
        <ele>211</ele>
        <time>2019-09-22T21:21:01Z</time>
      </trkpt>
      <trkpt lat="50.45073" lon="5.29136">
        <ele>208</ele>
        <time>2019-09-22T21:21:04Z</time>
      </trkpt>
      <trkpt lat="50.45078" lon="5.29112">
        <ele>207</ele>
        <time>2019-09-22T21:21:07Z</time>
      </trkpt>
      <trkpt lat="50.45082" lon="5.29074">
        <ele>205</ele>
        <time>2019-09-22T21:21:12Z</time>
      </trkpt>
      <trkpt lat="50.45086" lon="5.28972">
        <ele>205</ele>
        <time>2019-09-22T21:21:23Z</time>
      </trkpt>
      <trkpt lat="50.45089" lon="5.28752">
        <ele>203</ele>
        <time>2019-09-22T21:21:48Z</time>
      </trkpt>
      <trkpt lat="50.45089" lon="5.28684">
        <ele>201</ele>
        <time>2019-09-22T21:21:56Z</time>
      </trkpt>
      <trkpt lat="50.45086" lon="5.2865">
        <ele>198</ele>
        <time>2019-09-22T21:22:00Z</time>
      </trkpt>
      <trkpt lat="50.45098" lon="5.28567">
        <ele>188</ele>
        <time>2019-09-22T21:22:09Z</time>
      </trkpt>
      <trkpt lat="50.45119" lon="5.28496">
        <ele>183</ele>
        <time>2019-09-22T21:22:18Z</time>
      </trkpt>
      <trkpt lat="50.45141" lon="5.28446">
        <ele>183</ele>
        <time>2019-09-22T21:22:25Z</time>
      </trkpt>
      <trkpt lat="50.45182" lon="5.28486">
        <ele>184</ele>
        <time>2019-09-22T21:22:34Z</time>
      </trkpt>
      <trkpt lat="50.45199" lon="5.28453">
        <ele>187</ele>
        <time>2019-09-22T21:22:39Z</time>
      </trkpt>
      <trkpt lat="50.45209" lon="5.28426">
        <ele>188</ele>
        <time>2019-09-22T21:22:42Z</time>
      </trkpt>
      <trkpt lat="50.45213" lon="5.28404">
        <ele>190</ele>
        <time>2019-09-22T21:22:45Z</time>
      </trkpt>
      <trkpt lat="50.45214" lon="5.28385">
        <ele>191</ele>
        <time>2019-09-22T21:22:47Z</time>
      </trkpt>
      <trkpt lat="50.45211" lon="5.28358">
        <ele>193</ele>
        <time>2019-09-22T21:22:50Z</time>
      </trkpt>
      <trkpt lat="50.45201" lon="5.28327">
        <ele>192</ele>
        <time>2019-09-22T21:22:54Z</time>
      </trkpt>
      <trkpt lat="50.45165" lon="5.28276">
        <ele>187</ele>
        <time>2019-09-22T21:23:03Z</time>
      </trkpt>
      <trkpt lat="50.45157" lon="5.28268">
        <ele>186</ele>
        <time>2019-09-22T21:23:04Z</time>
      </trkpt>
      <trkpt lat="50.45142" lon="5.28235">
        <ele>185</ele>
        <time>2019-09-22T21:23:09Z</time>
      </trkpt>
      <trkpt lat="50.45138" lon="5.28212">
        <ele>185</ele>
        <time>2019-09-22T21:23:11Z</time>
      </trkpt>
      <trkpt lat="50.45139" lon="5.28186">
        <ele>185</ele>
        <time>2019-09-22T21:23:14Z</time>
      </trkpt>
      <trkpt lat="50.45149" lon="5.28132">
        <ele>185</ele>
        <time>2019-09-22T21:23:21Z</time>
      </trkpt>
      <trkpt lat="50.45194" lon="5.2797">
        <ele>178</ele>
        <time>2019-09-22T21:23:41Z</time>
      </trkpt>
      <trkpt lat="50.4519" lon="5.27964">
        <ele>176</ele>
        <time>2019-09-22T21:23:42Z</time>
      </trkpt>
      <trkpt lat="50.45148" lon="5.27945">
        <ele>175</ele>
        <time>2019-09-22T21:23:50Z</time>
      </trkpt>
      <trkpt lat="50.45142" lon="5.27931">
        <ele>176</ele>
        <time>2019-09-22T21:23:52Z</time>
      </trkpt>
      <trkpt lat="50.45143" lon="5.27889">
        <ele>177</ele>
        <time>2019-09-22T21:23:56Z</time>
      </trkpt>
      <trkpt lat="50.45141" lon="5.27868">
        <ele>178</ele>
        <time>2019-09-22T21:23:59Z</time>
      </trkpt>
      <trkpt lat="50.45131" lon="5.27828">
        <ele>182</ele>
        <time>2019-09-22T21:24:04Z</time>
      </trkpt>
      <trkpt lat="50.45077" lon="5.27671">
        <ele>189</ele>
        <time>2019-09-22T21:24:24Z</time>
      </trkpt>
      <trkpt lat="50.4507" lon="5.27654">
        <ele>191</ele>
        <time>2019-09-22T21:24:26Z</time>
      </trkpt>
      <trkpt lat="50.44999" lon="5.27545">
        <ele>188</ele>
        <time>2019-09-22T21:24:44Z</time>
      </trkpt>
      <trkpt lat="50.44985" lon="5.27516">
        <ele>190</ele>
        <time>2019-09-22T21:24:48Z</time>
      </trkpt>
      <trkpt lat="50.4489" lon="5.27264">
        <ele>197</ele>
        <time>2019-09-22T21:25:21Z</time>
      </trkpt>
      <trkpt lat="50.4484" lon="5.27191">
        <ele>199</ele>
        <time>2019-09-22T21:25:33Z</time>
      </trkpt>
      <trkpt lat="50.44826" lon="5.27174">
        <ele>199</ele>
        <time>2019-09-22T21:25:36Z</time>
      </trkpt>
      <trkpt lat="50.44807" lon="5.27158">
        <ele>199</ele>
        <time>2019-09-22T21:25:40Z</time>
      </trkpt>
      <trkpt lat="50.44789" lon="5.2715">
        <ele>199</ele>
        <time>2019-09-22T21:25:43Z</time>
      </trkpt>
      <trkpt lat="50.44777" lon="5.2714">
        <ele>198</ele>
        <time>2019-09-22T21:25:46Z</time>
      </trkpt>
      <trkpt lat="50.44751" lon="5.2711">
        <ele>196</ele>
        <time>2019-09-22T21:25:52Z</time>
      </trkpt>
      <trkpt lat="50.44732" lon="5.27085">
        <ele>196</ele>
        <time>2019-09-22T21:25:56Z</time>
      </trkpt>
      <trkpt lat="50.44708" lon="5.27039">
        <ele>197</ele>
        <time>2019-09-22T21:26:03Z</time>
      </trkpt>
      <trkpt lat="50.44689" lon="5.26983">
        <ele>195</ele>
        <time>2019-09-22T21:26:10Z</time>
      </trkpt>
      <trkpt lat="50.44673" lon="5.26912">
        <ele>192</ele>
        <time>2019-09-22T21:26:19Z</time>
      </trkpt>
      <trkpt lat="50.44669" lon="5.26885">
        <ele>192</ele>
        <time>2019-09-22T21:26:22Z</time>
      </trkpt>
      <trkpt lat="50.44669" lon="5.26822">
        <ele>193</ele>
        <time>2019-09-22T21:26:29Z</time>
      </trkpt>
      <trkpt lat="50.44666" lon="5.26789">
        <ele>194</ele>
        <time>2019-09-22T21:26:33Z</time>
      </trkpt>
      <trkpt lat="50.4465" lon="5.26751">
        <ele>196</ele>
        <time>2019-09-22T21:26:38Z</time>
      </trkpt>
      <trkpt lat="50.44634" lon="5.26725">
        <ele>197</ele>
        <time>2019-09-22T21:26:42Z</time>
      </trkpt>
      <trkpt lat="50.44634" lon="5.26705">
        <ele>198</ele>
        <time>2019-09-22T21:26:44Z</time>
      </trkpt>
      <trkpt lat="50.44643" lon="5.26686">
        <ele>199</ele>
        <time>2019-09-22T21:26:47Z</time>
      </trkpt>
      <trkpt lat="50.44644" lon="5.26672">
        <ele>200</ele>
        <time>2019-09-22T21:26:48Z</time>
      </trkpt>
      <trkpt lat="50.44632" lon="5.26647">
        <ele>201</ele>
        <time>2019-09-22T21:26:52Z</time>
      </trkpt>
      <trkpt lat="50.4453" lon="5.26473">
        <ele>205</ele>
        <time>2019-09-22T21:27:19Z</time>
      </trkpt>
      <trkpt lat="50.44496" lon="5.26391">
        <ele>206</ele>
        <time>2019-09-22T21:27:30Z</time>
      </trkpt>
      <trkpt lat="50.44473" lon="5.26345">
        <ele>206</ele>
        <time>2019-09-22T21:27:36Z</time>
      </trkpt>
      <trkpt lat="50.44432" lon="5.2628">
        <ele>205</ele>
        <time>2019-09-22T21:27:47Z</time>
      </trkpt>
      <trkpt lat="50.44412" lon="5.26253">
        <ele>206</ele>
        <time>2019-09-22T21:27:51Z</time>
      </trkpt>
      <trkpt lat="50.44432" lon="5.26177">
        <ele>206</ele>
        <time>2019-09-22T21:28:01Z</time>
      </trkpt>
      <trkpt lat="50.44439" lon="5.26162">
        <ele>205</ele>
        <time>2019-09-22T21:28:03Z</time>
      </trkpt>
      <trkpt lat="50.4446" lon="5.26146">
        <ele>204</ele>
        <time>2019-09-22T21:28:07Z</time>
      </trkpt>
      <trkpt lat="50.44455" lon="5.26114">
        <ele>203</ele>
        <time>2019-09-22T21:28:11Z</time>
      </trkpt>
      <trkpt lat="50.44415" lon="5.25905">
        <ele>201</ele>
        <time>2019-09-22T21:28:36Z</time>
      </trkpt>
      <trkpt lat="50.444" lon="5.25838">
        <ele>202</ele>
        <time>2019-09-22T21:28:44Z</time>
      </trkpt>
      <trkpt lat="50.44333" lon="5.25672">
        <ele>207</ele>
        <time>2019-09-22T21:29:06Z</time>
      </trkpt>
      <trkpt lat="50.44322" lon="5.25633">
        <ele>208</ele>
        <time>2019-09-22T21:29:11Z</time>
      </trkpt>
      <trkpt lat="50.44301" lon="5.25529">
        <ele>210</ele>
        <time>2019-09-22T21:29:23Z</time>
      </trkpt>
      <trkpt lat="50.44294" lon="5.25507">
        <ele>212</ele>
        <time>2019-09-22T21:29:26Z</time>
      </trkpt>
      <trkpt lat="50.44263" lon="5.25459">
        <ele>216</ele>
        <time>2019-09-22T21:29:34Z</time>
      </trkpt>
      <trkpt lat="50.43725" lon="5.24699">
        <ele>219</ele>
        <time>2019-09-22T21:31:42Z</time>
      </trkpt>
      <trkpt lat="50.43719" lon="5.24691">
        <ele>219</ele>
        <time>2019-09-22T21:31:44Z</time>
      </trkpt>
      <trkpt lat="50.43704" lon="5.24679">
        <ele>218</ele>
        <time>2019-09-22T21:31:47Z</time>
      </trkpt>
      <trkpt lat="50.4367" lon="5.2466">
        <ele>217</ele>
        <time>2019-09-22T21:31:53Z</time>
      </trkpt>
      <trkpt lat="50.43655" lon="5.24645">
        <ele>216</ele>
        <time>2019-09-22T21:31:56Z</time>
      </trkpt>
      <trkpt lat="50.4356" lon="5.24477">
        <ele>211</ele>
        <time>2019-09-22T21:32:22Z</time>
      </trkpt>
      <trkpt lat="50.43548" lon="5.24434">
        <ele>211</ele>
        <time>2019-09-22T21:32:27Z</time>
      </trkpt>
      <trkpt lat="50.43535" lon="5.24261">
        <ele>215</ele>
        <time>2019-09-22T21:32:47Z</time>
      </trkpt>
      <trkpt lat="50.43521" lon="5.24123">
        <ele>216</ele>
        <time>2019-09-22T21:33:03Z</time>
      </trkpt>
      <trkpt lat="50.43514" lon="5.24091">
        <ele>216</ele>
        <time>2019-09-22T21:33:07Z</time>
      </trkpt>
      <trkpt lat="50.4345" lon="5.23875">
        <ele>217</ele>
        <time>2019-09-22T21:33:34Z</time>
      </trkpt>
      <trkpt lat="50.43429" lon="5.23844">
        <ele>215</ele>
        <time>2019-09-22T21:33:39Z</time>
      </trkpt>
      <trkpt lat="50.43362" lon="5.23779">
        <ele>219</ele>
        <time>2019-09-22T21:33:53Z</time>
      </trkpt>
      <trkpt lat="50.43343" lon="5.23757">
        <ele>219</ele>
        <time>2019-09-22T21:33:57Z</time>
      </trkpt>
      <trkpt lat="50.43262" lon="5.23618">
        <ele>223</ele>
        <time>2019-09-22T21:34:18Z</time>
      </trkpt>
      <trkpt lat="50.43244" lon="5.2356">
        <ele>222</ele>
        <time>2019-09-22T21:34:26Z</time>
      </trkpt>
      <trkpt lat="50.4319" lon="5.23339">
        <ele>218</ele>
        <time>2019-09-22T21:34:52Z</time>
      </trkpt>
      <trkpt lat="50.43149" lon="5.23196">
        <ele>214</ele>
        <time>2019-09-22T21:35:10Z</time>
      </trkpt>
      <trkpt lat="50.43082" lon="5.23052">
        <ele>211</ele>
        <time>2019-09-22T21:35:30Z</time>
      </trkpt>
      <trkpt lat="50.43002" lon="5.22872">
        <ele>219</ele>
        <time>2019-09-22T21:35:55Z</time>
      </trkpt>
      <trkpt lat="50.42932" lon="5.22696">
        <ele>215</ele>
        <time>2019-09-22T21:36:19Z</time>
      </trkpt>
      <trkpt lat="50.42875" lon="5.22544">
        <ele>217</ele>
        <time>2019-09-22T21:36:39Z</time>
      </trkpt>
      <trkpt lat="50.42724" lon="5.22164">
        <ele>217</ele>
        <time>2019-09-22T21:37:29Z</time>
      </trkpt>
      <trkpt lat="50.42719" lon="5.22142">
        <ele>217</ele>
        <time>2019-09-22T21:37:32Z</time>
      </trkpt>
      <trkpt lat="50.42704" lon="5.22006">
        <ele>217</ele>
        <time>2019-09-22T21:37:48Z</time>
      </trkpt>
      <trkpt lat="50.4269" lon="5.21911">
        <ele>217</ele>
        <time>2019-09-22T21:37:59Z</time>
      </trkpt>
      <trkpt lat="50.42686" lon="5.21896">
        <ele>218</ele>
        <time>2019-09-22T21:38:01Z</time>
      </trkpt>
      <trkpt lat="50.42677" lon="5.21873">
        <ele>219</ele>
        <time>2019-09-22T21:38:04Z</time>
      </trkpt>
      <trkpt lat="50.42448" lon="5.21422">
        <ele>218</ele>
        <time>2019-09-22T21:39:09Z</time>
      </trkpt>
      <trkpt lat="50.42238" lon="5.20957">
        <ele>226</ele>
        <time>2019-09-22T21:40:14Z</time>
      </trkpt>
      <trkpt lat="50.4222" lon="5.20911">
        <ele>225</ele>
        <time>2019-09-22T21:40:20Z</time>
      </trkpt>
      <trkpt lat="50.42215" lon="5.20894">
        <ele>225</ele>
        <time>2019-09-22T21:40:22Z</time>
      </trkpt>
      <trkpt lat="50.42207" lon="5.20841">
        <ele>225</ele>
        <time>2019-09-22T21:40:28Z</time>
      </trkpt>
      <trkpt lat="50.422" lon="5.20766">
        <ele>226</ele>
        <time>2019-09-22T21:40:37Z</time>
      </trkpt>
      <trkpt lat="50.4213" lon="5.2044">
        <ele>226</ele>
        <time>2019-09-22T21:41:16Z</time>
      </trkpt>
      <trkpt lat="50.42111" lon="5.20362">
        <ele>225</ele>
        <time>2019-09-22T21:41:25Z</time>
      </trkpt>
      <trkpt lat="50.42086" lon="5.20275">
        <ele>226</ele>
        <time>2019-09-22T21:41:36Z</time>
      </trkpt>
      <trkpt lat="50.42052" lon="5.20169">
        <ele>228</ele>
        <time>2019-09-22T21:41:49Z</time>
      </trkpt>
      <trkpt lat="50.42007" lon="5.20045">
        <ele>228</ele>
        <time>2019-09-22T21:42:06Z</time>
      </trkpt>
      <trkpt lat="50.41934" lon="5.19868">
        <ele>229</ele>
        <time>2019-09-22T21:42:30Z</time>
      </trkpt>
      <trkpt lat="50.41907" lon="5.1981">
        <ele>230</ele>
        <time>2019-09-22T21:42:38Z</time>
      </trkpt>
      <trkpt lat="50.4185" lon="5.19714">
        <ele>232</ele>
        <time>2019-09-22T21:42:53Z</time>
      </trkpt>
      <trkpt lat="50.41813" lon="5.19639">
        <ele>233</ele>
        <time>2019-09-22T21:43:03Z</time>
      </trkpt>
      <trkpt lat="50.41806" lon="5.19635">
        <ele>232</ele>
        <time>2019-09-22T21:43:05Z</time>
      </trkpt>
      <trkpt lat="50.41794" lon="5.19637">
        <ele>232</ele>
        <time>2019-09-22T21:43:07Z</time>
      </trkpt>
      <trkpt lat="50.41747" lon="5.19622">
        <ele>231</ele>
        <time>2019-09-22T21:43:15Z</time>
      </trkpt>
      <trkpt lat="50.41739" lon="5.1961">
        <ele>231</ele>
        <time>2019-09-22T21:43:17Z</time>
      </trkpt>
      <trkpt lat="50.41733" lon="5.19593">
        <ele>230</ele>
        <time>2019-09-22T21:43:20Z</time>
      </trkpt>
      <trkpt lat="50.41672" lon="5.19262">
        <ele>232</ele>
        <time>2019-09-22T21:43:59Z</time>
      </trkpt>
      <trkpt lat="50.41641" lon="5.19075">
        <ele>237</ele>
        <time>2019-09-22T21:44:20Z</time>
      </trkpt>
      <trkpt lat="50.41644" lon="5.18731">
        <ele>242</ele>
        <time>2019-09-22T21:44:59Z</time>
      </trkpt>
      <trkpt lat="50.41636" lon="5.18676">
        <ele>244</ele>
        <time>2019-09-22T21:45:06Z</time>
      </trkpt>
      <trkpt lat="50.41555" lon="5.1839">
        <ele>248</ele>
        <time>2019-09-22T21:45:41Z</time>
      </trkpt>
      <trkpt lat="50.41453" lon="5.18014">
        <ele>239</ele>
        <time>2019-09-22T21:46:28Z</time>
      </trkpt>
      <trkpt lat="50.41437" lon="5.17973">
        <ele>239</ele>
        <time>2019-09-22T21:46:33Z</time>
      </trkpt>
      <trkpt lat="50.41375" lon="5.17856">
        <ele>244</ele>
        <time>2019-09-22T21:46:50Z</time>
      </trkpt>
      <trkpt lat="50.41363" lon="5.17838">
        <ele>246</ele>
        <time>2019-09-22T21:46:53Z</time>
      </trkpt>
      <trkpt lat="50.4129" lon="5.17657">
        <ele>252</ele>
        <time>2019-09-22T21:47:18Z</time>
      </trkpt>
      <trkpt lat="50.41234" lon="5.17509">
        <ele>256</ele>
        <time>2019-09-22T21:47:37Z</time>
      </trkpt>
      <trkpt lat="50.41217" lon="5.17455">
        <ele>256</ele>
        <time>2019-09-22T21:47:44Z</time>
      </trkpt>
      <trkpt lat="50.41183" lon="5.1734">
        <ele>256</ele>
        <time>2019-09-22T21:47:58Z</time>
      </trkpt>
      <trkpt lat="50.41169" lon="5.17284">
        <ele>256</ele>
        <time>2019-09-22T21:48:05Z</time>
      </trkpt>
      <trkpt lat="50.41166" lon="5.1726">
        <ele>257</ele>
        <time>2019-09-22T21:48:08Z</time>
      </trkpt>
      <trkpt lat="50.41167" lon="5.17226">
        <ele>257</ele>
        <time>2019-09-22T21:48:12Z</time>
      </trkpt>
      <trkpt lat="50.41178" lon="5.1718">
        <ele>258</ele>
        <time>2019-09-22T21:48:17Z</time>
      </trkpt>
      <trkpt lat="50.41187" lon="5.17162">
        <ele>259</ele>
        <time>2019-09-22T21:48:20Z</time>
      </trkpt>
      <trkpt lat="50.41195" lon="5.17157">
        <ele>260</ele>
        <time>2019-09-22T21:48:22Z</time>
      </trkpt>
      <trkpt lat="50.41207" lon="5.17143">
        <ele>261</ele>
        <time>2019-09-22T21:48:24Z</time>
      </trkpt>
      <trkpt lat="50.41265" lon="5.1707">
        <ele>264</ele>
        <time>2019-09-22T21:48:37Z</time>
      </trkpt>
      <trkpt lat="50.41475" lon="5.16798">
        <ele>278</ele>
        <time>2019-09-22T21:49:26Z</time>
      </trkpt>
      <trkpt lat="50.41537" lon="5.16711">
        <ele>280</ele>
        <time>2019-09-22T21:49:41Z</time>
      </trkpt>
      <trkpt lat="50.41609" lon="5.16741">
        <ele>279</ele>
        <time>2019-09-22T21:49:54Z</time>
      </trkpt>
      <trkpt lat="50.42018" lon="5.16887">
        <ele>255</ele>
        <time>2019-09-22T21:51:09Z</time>
      </trkpt>
      <trkpt lat="50.42149" lon="5.16929">
        <ele>249</ele>
        <time>2019-09-22T21:51:32Z</time>
      </trkpt>
      <trkpt lat="50.42366" lon="5.16994">
        <ele>244</ele>
        <time>2019-09-22T21:52:12Z</time>
      </trkpt>
      <trkpt lat="50.42398" lon="5.17006">
        <ele>243</ele>
        <time>2019-09-22T21:52:17Z</time>
      </trkpt>
      <trkpt lat="50.4244" lon="5.17026">
        <ele>242</ele>
        <time>2019-09-22T21:52:25Z</time>
      </trkpt>
      <trkpt lat="50.4267" lon="5.17155">
        <ele>236</ele>
        <time>2019-09-22T21:53:09Z</time>
      </trkpt>
      <trkpt lat="50.42956" lon="5.1731">
        <ele>232</ele>
        <time>2019-09-22T21:54:03Z</time>
      </trkpt>
      <trkpt lat="50.42999" lon="5.17329">
        <ele>231</ele>
        <time>2019-09-22T21:54:11Z</time>
      </trkpt>
      <trkpt lat="50.43042" lon="5.17343">
        <ele>230</ele>
        <time>2019-09-22T21:54:18Z</time>
      </trkpt>
      <trkpt lat="50.4331" lon="5.17418">
        <ele>226</ele>
        <time>2019-09-22T21:55:07Z</time>
      </trkpt>
      <trkpt lat="50.43392" lon="5.17445">
        <ele>225</ele>
        <time>2019-09-22T21:55:22Z</time>
      </trkpt>
      <trkpt lat="50.43451" lon="5.1747">
        <ele>226</ele>
        <time>2019-09-22T21:55:33Z</time>
      </trkpt>
      <trkpt lat="50.4349" lon="5.1749">
        <ele>227</ele>
        <time>2019-09-22T21:55:40Z</time>
      </trkpt>
      <trkpt lat="50.43637" lon="5.17579">
        <ele>231</ele>
        <time>2019-09-22T21:56:08Z</time>
      </trkpt>
      <trkpt lat="50.43666" lon="5.17591">
        <ele>232</ele>
        <time>2019-09-22T21:56:13Z</time>
      </trkpt>
      <trkpt lat="50.43694" lon="5.17601">
        <ele>232</ele>
        <time>2019-09-22T21:56:18Z</time>
      </trkpt>
      <trkpt lat="50.43724" lon="5.17604">
        <ele>233</ele>
        <time>2019-09-22T21:56:24Z</time>
      </trkpt>
      <trkpt lat="50.43801" lon="5.17596">
        <ele>235</ele>
        <time>2019-09-22T21:56:37Z</time>
      </trkpt>
      <trkpt lat="50.43837" lon="5.17604">
        <ele>236</ele>
        <time>2019-09-22T21:56:44Z</time>
      </trkpt>
      <trkpt lat="50.43882" lon="5.1762">
        <ele>238</ele>
        <time>2019-09-22T21:56:52Z</time>
      </trkpt>
      <trkpt lat="50.43941" lon="5.17699">
        <ele>242</ele>
        <time>2019-09-22T21:57:06Z</time>
      </trkpt>
      <trkpt lat="50.44023" lon="5.17768">
        <ele>246</ele>
        <time>2019-09-22T21:57:22Z</time>
      </trkpt>
      <trkpt lat="50.4404" lon="5.17789">
        <ele>247</ele>
        <time>2019-09-22T21:57:26Z</time>
      </trkpt>
      <trkpt lat="50.44063" lon="5.17831">
        <ele>249</ele>
        <time>2019-09-22T21:57:33Z</time>
      </trkpt>
      <trkpt lat="50.44091" lon="5.17903">
        <ele>250</ele>
        <time>2019-09-22T21:57:42Z</time>
      </trkpt>
      <trkpt lat="50.44131" lon="5.17983">
        <ele>253</ele>
        <time>2019-09-22T21:57:54Z</time>
      </trkpt>
      <trkpt lat="50.44184" lon="5.18074">
        <ele>256</ele>
        <time>2019-09-22T21:58:08Z</time>
      </trkpt>
      <trkpt lat="50.44198" lon="5.18087">
        <ele>258</ele>
        <time>2019-09-22T21:58:11Z</time>
      </trkpt>
      <trkpt lat="50.44206" lon="5.18084">
        <ele>259</ele>
        <time>2019-09-22T21:58:12Z</time>
      </trkpt>
      <trkpt lat="50.44241" lon="5.1816">
        <ele>260</ele>
        <time>2019-09-22T21:58:23Z</time>
      </trkpt>
      <trkpt lat="50.44331" lon="5.18335">
        <ele>264</ele>
        <time>2019-09-22T21:58:48Z</time>
      </trkpt>
      <trkpt lat="50.44338" lon="5.18353">
        <ele>264</ele>
        <time>2019-09-22T21:58:50Z</time>
      </trkpt>
      <trkpt lat="50.44371" lon="5.18476">
        <ele>263</ele>
        <time>2019-09-22T21:59:06Z</time>
      </trkpt>
      <trkpt lat="50.44377" lon="5.18507">
        <ele>263</ele>
        <time>2019-09-22T21:59:09Z</time>
      </trkpt>
      <trkpt lat="50.44381" lon="5.1856">
        <ele>261</ele>
        <time>2019-09-22T21:59:15Z</time>
      </trkpt>
      <trkpt lat="50.44393" lon="5.18612">
        <ele>260</ele>
        <time>2019-09-22T21:59:22Z</time>
      </trkpt>
      <trkpt lat="50.44493" lon="5.18887">
        <ele>260</ele>
        <time>2019-09-22T21:59:57Z</time>
      </trkpt>
      <trkpt lat="50.44569" lon="5.19114">
        <ele>259</ele>
        <time>2019-09-22T22:00:27Z</time>
      </trkpt>
      <trkpt lat="50.44629" lon="5.19315">
        <ele>258</ele>
        <time>2019-09-22T22:00:52Z</time>
      </trkpt>
      <trkpt lat="50.44642" lon="5.1934">
        <ele>259</ele>
        <time>2019-09-22T22:00:55Z</time>
      </trkpt>
      <trkpt lat="50.44679" lon="5.19379">
        <ele>260</ele>
        <time>2019-09-22T22:01:03Z</time>
      </trkpt>
      <trkpt lat="50.44703" lon="5.19417">
        <ele>260</ele>
        <time>2019-09-22T22:01:09Z</time>
      </trkpt>
      <trkpt lat="50.44723" lon="5.19467">
        <ele>260</ele>
        <time>2019-09-22T22:01:16Z</time>
      </trkpt>
      <trkpt lat="50.44731" lon="5.19495">
        <ele>259</ele>
        <time>2019-09-22T22:01:20Z</time>
      </trkpt>
      <trkpt lat="50.44745" lon="5.19522">
        <ele>259</ele>
        <time>2019-09-22T22:01:23Z</time>
      </trkpt>
      <trkpt lat="50.44783" lon="5.19579">
        <ele>259</ele>
        <time>2019-09-22T22:01:33Z</time>
      </trkpt>
      <trkpt lat="50.44841" lon="5.19697">
        <ele>261</ele>
        <time>2019-09-22T22:01:50Z</time>
      </trkpt>
      <trkpt lat="50.44849" lon="5.19742">
        <ele>260</ele>
        <time>2019-09-22T22:01:55Z</time>
      </trkpt>
      <trkpt lat="50.44856" lon="5.19809">
        <ele>258</ele>
        <time>2019-09-22T22:02:03Z</time>
      </trkpt>
      <trkpt lat="50.44872" lon="5.19852">
        <ele>258</ele>
        <time>2019-09-22T22:02:08Z</time>
      </trkpt>
      <trkpt lat="50.44891" lon="5.1988">
        <ele>259</ele>
        <time>2019-09-22T22:02:13Z</time>
      </trkpt>
      <trkpt lat="50.449" lon="5.19884">
        <ele>259</ele>
        <time>2019-09-22T22:02:15Z</time>
      </trkpt>
      <trkpt lat="50.44908" lon="5.19879">
        <ele>260</ele>
        <time>2019-09-22T22:02:16Z</time>
      </trkpt>
      <trkpt lat="50.44914" lon="5.19864">
        <ele>261</ele>
        <time>2019-09-22T22:02:18Z</time>
      </trkpt>
      <trkpt lat="50.44942" lon="5.19816">
        <ele>264</ele>
        <time>2019-09-22T22:02:26Z</time>
      </trkpt>
      <trkpt lat="50.44968" lon="5.19785">
        <ele>266</ele>
        <time>2019-09-22T22:02:31Z</time>
      </trkpt>
      <trkpt lat="50.45019" lon="5.19902">
        <ele>266</ele>
        <time>2019-09-22T22:02:47Z</time>
      </trkpt>
      <trkpt lat="50.45042" lon="5.19969">
        <ele>266</ele>
        <time>2019-09-22T22:02:56Z</time>
      </trkpt>
      <trkpt lat="50.45084" lon="5.20076">
        <ele>268</ele>
        <time>2019-09-22T22:03:10Z</time>
      </trkpt>
      <trkpt lat="50.45119" lon="5.20151">
        <ele>267</ele>
        <time>2019-09-22T22:03:21Z</time>
      </trkpt>
      <trkpt lat="50.45156" lon="5.20221">
        <ele>267</ele>
        <time>2019-09-22T22:03:31Z</time>
      </trkpt>
      <trkpt lat="50.45272" lon="5.20507">
        <ele>268</ele>
        <time>2019-09-22T22:04:10Z</time>
      </trkpt>
      <trkpt lat="50.45385" lon="5.20806">
        <ele>265</ele>
        <time>2019-09-22T22:04:49Z</time>
      </trkpt>
      <trkpt lat="50.45543" lon="5.21242">
        <ele>266</ele>
        <time>2019-09-22T22:05:46Z</time>
      </trkpt>
      <trkpt lat="50.45665" lon="5.21547">
        <ele>267</ele>
        <time>2019-09-22T22:06:27Z</time>
      </trkpt>
      <trkpt lat="50.45891" lon="5.22084">
        <ele>264</ele>
        <time>2019-09-22T22:07:39Z</time>
      </trkpt>
      <trkpt lat="50.45946" lon="5.22197">
        <ele>266</ele>
        <time>2019-09-22T22:07:56Z</time>
      </trkpt>
      <trkpt lat="50.46" lon="5.22329">
        <ele>266</ele>
        <time>2019-09-22T22:08:13Z</time>
      </trkpt>
      <trkpt lat="50.46075" lon="5.22484">
        <ele>267</ele>
        <time>2019-09-22T22:08:35Z</time>
      </trkpt>
      <trkpt lat="50.46105" lon="5.22555">
        <ele>267</ele>
        <time>2019-09-22T22:08:45Z</time>
      </trkpt>
      <trkpt lat="50.46118" lon="5.22605">
        <ele>267</ele>
        <time>2019-09-22T22:08:51Z</time>
      </trkpt>
      <trkpt lat="50.46125" lon="5.22618">
        <ele>268</ele>
        <time>2019-09-22T22:08:53Z</time>
      </trkpt>
      <trkpt lat="50.46137" lon="5.22629">
        <ele>269</ele>
        <time>2019-09-22T22:08:56Z</time>
      </trkpt>
      <trkpt lat="50.46166" lon="5.2264">
        <ele>271</ele>
        <time>2019-09-22T22:09:01Z</time>
      </trkpt>
      <trkpt lat="50.4625" lon="5.2264">
        <ele>269</ele>
        <time>2019-09-22T22:09:16Z</time>
      </trkpt>
      <trkpt lat="50.46275" lon="5.22642">
        <ele>268</ele>
        <time>2019-09-22T22:09:20Z</time>
      </trkpt>
      <trkpt lat="50.46352" lon="5.22669">
        <ele>265</ele>
        <time>2019-09-22T22:09:34Z</time>
      </trkpt>
      <trkpt lat="50.4641" lon="5.22685">
        <ele>262</ele>
        <time>2019-09-22T22:09:45Z</time>
      </trkpt>
      <trkpt lat="50.467" lon="5.22738">
        <ele>222</ele>
        <time>2019-09-22T22:10:37Z</time>
      </trkpt>
      <trkpt lat="50.46752" lon="5.22744">
        <ele>218</ele>
        <time>2019-09-22T22:10:46Z</time>
      </trkpt>
      <trkpt lat="50.46851" lon="5.22751">
        <ele>214</ele>
        <time>2019-09-22T22:11:04Z</time>
      </trkpt>
      <trkpt lat="50.46916" lon="5.2275">
        <ele>211</ele>
        <time>2019-09-22T22:11:15Z</time>
      </trkpt>
      <trkpt lat="50.46972" lon="5.22741">
        <ele>210</ele>
        <time>2019-09-22T22:11:25Z</time>
      </trkpt>
      <trkpt lat="50.47284" lon="5.22656">
        <ele>207</ele>
        <time>2019-09-22T22:12:22Z</time>
      </trkpt>
      <trkpt lat="50.47346" lon="5.22666">
        <ele>207</ele>
        <time>2019-09-22T22:12:33Z</time>
      </trkpt>
      <trkpt lat="50.47481" lon="5.22701">
        <ele>209</ele>
        <time>2019-09-22T22:12:57Z</time>
      </trkpt>
      <trkpt lat="50.47522" lon="5.22708">
        <ele>209</ele>
        <time>2019-09-22T22:13:04Z</time>
      </trkpt>
      <trkpt lat="50.47622" lon="5.22705">
        <ele>213</ele>
        <time>2019-09-22T22:13:22Z</time>
      </trkpt>
      <trkpt lat="50.47826" lon="5.22641">
        <ele>234</ele>
        <time>2019-09-22T22:13:59Z</time>
      </trkpt>
      <trkpt lat="50.47891" lon="5.22625">
        <ele>243</ele>
        <time>2019-09-22T22:14:11Z</time>
      </trkpt>
      <trkpt lat="50.47902" lon="5.2262">
        <ele>244</ele>
        <time>2019-09-22T22:14:13Z</time>
      </trkpt>
      <trkpt lat="50.47926" lon="5.22617">
        <ele>247</ele>
        <time>2019-09-22T22:14:17Z</time>
      </trkpt>
      <trkpt lat="50.47937" lon="5.22613">
        <ele>248</ele>
        <time>2019-09-22T22:14:19Z</time>
      </trkpt>
      <trkpt lat="50.47947" lon="5.22613">
        <ele>248</ele>
        <time>2019-09-22T22:14:21Z</time>
      </trkpt>
      <trkpt lat="50.47984" lon="5.226">
        <ele>250</ele>
        <time>2019-09-22T22:14:28Z</time>
      </trkpt>
      <trkpt lat="50.48" lon="5.22597">
        <ele>251</ele>
        <time>2019-09-22T22:14:31Z</time>
      </trkpt>
      <trkpt lat="50.48287" lon="5.22513">
        <ele>255</ele>
        <time>2019-09-22T22:15:23Z</time>
      </trkpt>
      <trkpt lat="50.48304" lon="5.22524">
        <ele>252</ele>
        <time>2019-09-22T22:15:26Z</time>
      </trkpt>
      <trkpt lat="50.48372" lon="5.22629">
        <ele>242</ele>
        <time>2019-09-22T22:15:43Z</time>
      </trkpt>
      <trkpt lat="50.48382" lon="5.22639">
        <ele>241</ele>
        <time>2019-09-22T22:15:45Z</time>
      </trkpt>
      <trkpt lat="50.48397" lon="5.22641">
        <ele>239</ele>
        <time>2019-09-22T22:15:48Z</time>
      </trkpt>
      <trkpt lat="50.48415" lon="5.22632">
        <ele>236</ele>
        <time>2019-09-22T22:15:51Z</time>
      </trkpt>
      <trkpt lat="50.48447" lon="5.22577">
        <ele>231</ele>
        <time>2019-09-22T22:15:59Z</time>
      </trkpt>
      <trkpt lat="50.48475" lon="5.22522">
        <ele>230</ele>
        <time>2019-09-22T22:16:07Z</time>
      </trkpt>
      <trkpt lat="50.48501" lon="5.22489">
        <ele>229</ele>
        <time>2019-09-22T22:16:13Z</time>
      </trkpt>
      <trkpt lat="50.48523" lon="5.22476">
        <ele>229</ele>
        <time>2019-09-22T22:16:17Z</time>
      </trkpt>
      <trkpt lat="50.48534" lon="5.22475">
        <ele>228</ele>
        <time>2019-09-22T22:16:19Z</time>
      </trkpt>
      <trkpt lat="50.48579" lon="5.22489">
        <ele>227</ele>
        <time>2019-09-22T22:16:28Z</time>
      </trkpt>
      <trkpt lat="50.48584" lon="5.22518">
        <ele>227</ele>
        <time>2019-09-22T22:16:31Z</time>
      </trkpt>
      <trkpt lat="50.48598" lon="5.22564">
        <ele>227</ele>
        <time>2019-09-22T22:16:37Z</time>
      </trkpt>
      <trkpt lat="50.48627" lon="5.22709">
        <ele>223</ele>
        <time>2019-09-22T22:16:54Z</time>
      </trkpt>
      <trkpt lat="50.4864" lon="5.22735">
        <ele>222</ele>
        <time>2019-09-22T22:16:58Z</time>
      </trkpt>
      <trkpt lat="50.48667" lon="5.22775">
        <ele>220</ele>
        <time>2019-09-22T22:17:04Z</time>
      </trkpt>
      <trkpt lat="50.4867" lon="5.22787">
        <ele>220</ele>
        <time>2019-09-22T22:17:06Z</time>
      </trkpt>
      <trkpt lat="50.4867" lon="5.22811">
        <ele>218</ele>
        <time>2019-09-22T22:17:09Z</time>
      </trkpt>
      <trkpt lat="50.48664" lon="5.2285">
        <ele>216</ele>
        <time>2019-09-22T22:17:13Z</time>
      </trkpt>
      <trkpt lat="50.48664" lon="5.22872">
        <ele>215</ele>
        <time>2019-09-22T22:17:16Z</time>
      </trkpt>
      <trkpt lat="50.48677" lon="5.22915">
        <ele>214</ele>
        <time>2019-09-22T22:17:21Z</time>
      </trkpt>
      <trkpt lat="50.4872" lon="5.23036">
        <ele>214</ele>
        <time>2019-09-22T22:17:37Z</time>
      </trkpt>
      <trkpt lat="50.48735" lon="5.23102">
        <ele>210</ele>
        <time>2019-09-22T22:17:45Z</time>
      </trkpt>
      <trkpt lat="50.48748" lon="5.23181">
        <ele>205</ele>
        <time>2019-09-22T22:17:54Z</time>
      </trkpt>
      <trkpt lat="50.48757" lon="5.23274">
        <ele>201</ele>
        <time>2019-09-22T22:18:04Z</time>
      </trkpt>
      <trkpt lat="50.4876" lon="5.23342">
        <ele>199</ele>
        <time>2019-09-22T22:18:12Z</time>
      </trkpt>
      <trkpt lat="50.48758" lon="5.23378">
        <ele>198</ele>
        <time>2019-09-22T22:18:16Z</time>
      </trkpt>
      <trkpt lat="50.48746" lon="5.23442">
        <ele>196</ele>
        <time>2019-09-22T22:18:24Z</time>
      </trkpt>
      <trkpt lat="50.48744" lon="5.23469">
        <ele>195</ele>
        <time>2019-09-22T22:18:27Z</time>
      </trkpt>
      <trkpt lat="50.48754" lon="5.23531">
        <ele>192</ele>
        <time>2019-09-22T22:18:34Z</time>
      </trkpt>
      <trkpt lat="50.48773" lon="5.23586">
        <ele>187</ele>
        <time>2019-09-22T22:18:41Z</time>
      </trkpt>
      <trkpt lat="50.4879" lon="5.23621">
        <ele>187</ele>
        <time>2019-09-22T22:18:46Z</time>
      </trkpt>
      <trkpt lat="50.488" lon="5.23632">
        <ele>186</ele>
        <time>2019-09-22T22:18:48Z</time>
      </trkpt>
      <trkpt lat="50.48868" lon="5.23694">
        <ele>179</ele>
        <time>2019-09-22T22:19:02Z</time>
      </trkpt>
      <trkpt lat="50.4896" lon="5.23744">
        <ele>164</ele>
        <time>2019-09-22T22:19:20Z</time>
      </trkpt>
      <trkpt lat="50.48978" lon="5.23759">
        <ele>160</ele>
        <time>2019-09-22T22:19:23Z</time>
      </trkpt>
      <trkpt lat="50.48984" lon="5.23761">
        <ele>158</ele>
        <time>2019-09-22T22:19:24Z</time>
      </trkpt>
      <trkpt lat="50.48989" lon="5.23767">
        <ele>157</ele>
        <time>2019-09-22T22:19:26Z</time>
      </trkpt>
      <trkpt lat="50.48995" lon="5.23788">
        <ele>156</ele>
        <time>2019-09-22T22:19:28Z</time>
      </trkpt>
      <trkpt lat="50.48995" lon="5.23865">
        <ele>159</ele>
        <time>2019-09-22T22:19:37Z</time>
      </trkpt>
      <trkpt lat="50.48997" lon="5.23886">
        <ele>159</ele>
        <time>2019-09-22T22:19:39Z</time>
      </trkpt>
      <trkpt lat="50.49062" lon="5.24175">
        <ele>144</ele>
        <time>2019-09-22T22:20:14Z</time>
      </trkpt>
      <trkpt lat="50.49064" lon="5.24156">
        <ele>141</ele>
        <time>2019-09-22T22:20:16Z</time>
      </trkpt>
      <trkpt lat="50.49059" lon="5.2403">
        <ele>135</ele>
        <time>2019-09-22T22:20:30Z</time>
      </trkpt>
      <trkpt lat="50.49061" lon="5.23781">
        <ele>126</ele>
        <time>2019-09-22T22:20:59Z</time>
      </trkpt>
      <trkpt lat="50.49073" lon="5.23747">
        <ele>121</ele>
        <time>2019-09-22T22:21:03Z</time>
      </trkpt>
      <trkpt lat="50.49085" lon="5.23688">
        <ele>123</ele>
        <time>2019-09-22T22:21:10Z</time>
      </trkpt>
      <trkpt lat="50.491" lon="5.23656">
        <ele>126</ele>
        <time>2019-09-22T22:21:15Z</time>
      </trkpt>
      <trkpt lat="50.4917" lon="5.2357">
        <ele>124</ele>
        <time>2019-09-22T22:21:30Z</time>
      </trkpt>
      <trkpt lat="50.49228" lon="5.23487">
        <ele>124</ele>
        <time>2019-09-22T22:21:44Z</time>
      </trkpt>
      <trkpt lat="50.49246" lon="5.23472">
        <ele>121</ele>
        <time>2019-09-22T22:21:48Z</time>
      </trkpt>
      <trkpt lat="50.49283" lon="5.23449">
        <ele>120</ele>
        <time>2019-09-22T22:21:55Z</time>
      </trkpt>
      <trkpt lat="50.49339" lon="5.2342">
        <ele>117</ele>
        <time>2019-09-22T22:22:05Z</time>
      </trkpt>
      <trkpt lat="50.49376" lon="5.23413">
        <ele>117</ele>
        <time>2019-09-22T22:22:12Z</time>
      </trkpt>
      <trkpt lat="50.49404" lon="5.23415">
        <ele>115</ele>
        <time>2019-09-22T22:22:17Z</time>
      </trkpt>
      <trkpt lat="50.49484" lon="5.2343">
        <ele>116</ele>
        <time>2019-09-22T22:22:31Z</time>
      </trkpt>
      <trkpt lat="50.495" lon="5.23437">
        <ele>116</ele>
        <time>2019-09-22T22:22:34Z</time>
      </trkpt>
      <trkpt lat="50.49508" lon="5.23442">
        <ele>116</ele>
        <time>2019-09-22T22:22:36Z</time>
      </trkpt>
      <trkpt lat="50.49534" lon="5.23473">
        <ele>114</ele>
        <time>2019-09-22T22:22:42Z</time>
      </trkpt>
      <trkpt lat="50.49615" lon="5.23588">
        <ele>115</ele>
        <time>2019-09-22T22:23:01Z</time>
      </trkpt>
      <trkpt lat="50.49639" lon="5.23639">
        <ele>119</ele>
        <time>2019-09-22T22:23:08Z</time>
      </trkpt>
      <trkpt lat="50.49647" lon="5.23665">
        <ele>120</ele>
        <time>2019-09-22T22:23:12Z</time>
      </trkpt>
      <trkpt lat="50.49652" lon="5.23696">
        <ele>119</ele>
        <time>2019-09-22T22:23:15Z</time>
      </trkpt>
      <trkpt lat="50.49656" lon="5.23758">
        <ele>116</ele>
        <time>2019-09-22T22:23:22Z</time>
      </trkpt>
      <trkpt lat="50.49645" lon="5.23941">
        <ele>116</ele>
        <time>2019-09-22T22:23:43Z</time>
      </trkpt>
      <trkpt lat="50.49654" lon="5.23998">
        <ele>115</ele>
        <time>2019-09-22T22:23:50Z</time>
      </trkpt>
      <trkpt lat="50.49662" lon="5.24032">
        <ele>112</ele>
        <time>2019-09-22T22:23:54Z</time>
      </trkpt>
      <trkpt lat="50.49672" lon="5.24066">
        <ele>110</ele>
        <time>2019-09-22T22:23:58Z</time>
      </trkpt>
      <trkpt lat="50.49697" lon="5.2412">
        <ele>109</ele>
        <time>2019-09-22T22:24:06Z</time>
      </trkpt>
      <trkpt lat="50.49711" lon="5.24138">
        <ele>109</ele>
        <time>2019-09-22T22:24:09Z</time>
      </trkpt>
      <trkpt lat="50.49744" lon="5.24172">
        <ele>108</ele>
        <time>2019-09-22T22:24:16Z</time>
      </trkpt>
      <trkpt lat="50.49756" lon="5.24178">
        <ele>108</ele>
        <time>2019-09-22T22:24:18Z</time>
      </trkpt>
      <trkpt lat="50.49781" lon="5.24183">
        <ele>107</ele>
        <time>2019-09-22T22:24:23Z</time>
      </trkpt>
      <trkpt lat="50.4981" lon="5.24181">
        <ele>107</ele>
        <time>2019-09-22T22:24:28Z</time>
      </trkpt>
      <trkpt lat="50.49827" lon="5.24171">
        <ele>108</ele>
        <time>2019-09-22T22:24:31Z</time>
      </trkpt>
      <trkpt lat="50.49845" lon="5.24153">
        <ele>109</ele>
        <time>2019-09-22T22:24:35Z</time>
      </trkpt>
      <trkpt lat="50.49889" lon="5.24105">
        <ele>109</ele>
        <time>2019-09-22T22:24:44Z</time>
      </trkpt>
      <trkpt lat="50.50019" lon="5.23954">
        <ele>106</ele>
        <time>2019-09-22T22:25:13Z</time>
      </trkpt>
      <trkpt lat="50.50179" lon="5.2378">
        <ele>107</ele>
        <time>2019-09-22T22:25:48Z</time>
      </trkpt>
      <trkpt lat="50.50222" lon="5.23737">
        <ele>105</ele>
        <time>2019-09-22T22:25:57Z</time>
      </trkpt>
      <trkpt lat="50.50452" lon="5.23601">
        <ele>101</ele>
        <time>2019-09-22T22:26:40Z</time>
      </trkpt>
      <trkpt lat="50.50575" lon="5.23504">
        <ele>96</ele>
        <time>2019-09-22T22:27:05Z</time>
      </trkpt>
      <trkpt lat="50.50592" lon="5.23493">
        <ele>95</ele>
        <time>2019-09-22T22:27:08Z</time>
      </trkpt>
      <trkpt lat="50.50611" lon="5.23486">
        <ele>94</ele>
        <time>2019-09-22T22:27:12Z</time>
      </trkpt>
      <trkpt lat="50.50656" lon="5.23481">
        <ele>91</ele>
        <time>2019-09-22T22:27:20Z</time>
      </trkpt>
      <trkpt lat="50.5081" lon="5.23407">
        <ele>98</ele>
        <time>2019-09-22T22:27:48Z</time>
      </trkpt>
      <trkpt lat="50.50828" lon="5.23408">
        <ele>98</ele>
        <time>2019-09-22T22:27:52Z</time>
      </trkpt>
      <trkpt lat="50.50858" lon="5.23429">
        <ele>102</ele>
        <time>2019-09-22T22:27:57Z</time>
      </trkpt>
      <trkpt lat="50.50905" lon="5.23469">
        <ele>105</ele>
        <time>2019-09-22T22:28:07Z</time>
      </trkpt>
      <trkpt lat="50.5093" lon="5.23514">
        <ele>105</ele>
        <time>2019-09-22T22:28:14Z</time>
      </trkpt>
      <trkpt lat="50.5094" lon="5.23544">
        <ele>106</ele>
        <time>2019-09-22T22:28:18Z</time>
      </trkpt>
      <trkpt lat="50.50945" lon="5.23581">
        <ele>104</ele>
        <time>2019-09-22T22:28:22Z</time>
      </trkpt>
      <trkpt lat="50.50923" lon="5.2376">
        <ele>94</ele>
        <time>2019-09-22T22:28:42Z</time>
      </trkpt>
      <trkpt lat="50.5091" lon="5.23902">
        <ele>87</ele>
        <time>2019-09-22T22:28:59Z</time>
      </trkpt>
      <trkpt lat="50.50913" lon="5.23922">
        <ele>85</ele>
        <time>2019-09-22T22:29:01Z</time>
      </trkpt>
      <trkpt lat="50.50923" lon="5.23938">
        <ele>84</ele>
        <time>2019-09-22T22:29:04Z</time>
      </trkpt>
      <trkpt lat="50.50934" lon="5.23942">
        <ele>85</ele>
        <time>2019-09-22T22:29:06Z</time>
      </trkpt>
      <trkpt lat="50.50959" lon="5.23941">
        <ele>86</ele>
        <time>2019-09-22T22:29:10Z</time>
      </trkpt>
      <trkpt lat="50.50989" lon="5.23937">
        <ele>87</ele>
        <time>2019-09-22T22:29:15Z</time>
      </trkpt>
      <trkpt lat="50.51037" lon="5.23925">
        <ele>88</ele>
        <time>2019-09-22T22:29:24Z</time>
      </trkpt>
      <trkpt lat="50.51058" lon="5.23922">
        <ele>87</ele>
        <time>2019-09-22T22:29:28Z</time>
      </trkpt>
      <trkpt lat="50.51085" lon="5.23926">
        <ele>86</ele>
        <time>2019-09-22T22:29:33Z</time>
      </trkpt>
      <trkpt lat="50.51143" lon="5.2394">
        <ele>84</ele>
        <time>2019-09-22T22:29:43Z</time>
      </trkpt>
      <trkpt lat="50.51162" lon="5.23942">
        <ele>84</ele>
        <time>2019-09-22T22:29:46Z</time>
      </trkpt>
      <trkpt lat="50.51195" lon="5.2394">
        <ele>83</ele>
        <time>2019-09-22T22:29:52Z</time>
      </trkpt>
      <trkpt lat="50.5124" lon="5.23933">
        <ele>81</ele>
        <time>2019-09-22T22:30:00Z</time>
      </trkpt>
      <trkpt lat="50.5139" lon="5.23893">
        <ele>76</ele>
        <time>2019-09-22T22:30:27Z</time>
      </trkpt>
      <trkpt lat="50.51439" lon="5.23885">
        <ele>76</ele>
        <time>2019-09-22T22:30:36Z</time>
      </trkpt>
      <trkpt lat="50.51471" lon="5.23886">
        <ele>77</ele>
        <time>2019-09-22T22:30:42Z</time>
      </trkpt>
      <trkpt lat="50.51502" lon="5.2389">
        <ele>78</ele>
        <time>2019-09-22T22:30:47Z</time>
      </trkpt>
      <trkpt lat="50.5154" lon="5.23899">
        <ele>76</ele>
        <time>2019-09-22T22:30:54Z</time>
      </trkpt>
      <trkpt lat="50.5156" lon="5.23914">
        <ele>74</ele>
        <time>2019-09-22T22:30:58Z</time>
      </trkpt>
      <trkpt lat="50.51612" lon="5.23962">
        <ele>74</ele>
        <time>2019-09-22T22:31:09Z</time>
      </trkpt>
      <trkpt lat="50.51647" lon="5.24017">
        <ele>74</ele>
        <time>2019-09-22T22:31:18Z</time>
      </trkpt>
      <trkpt lat="50.51653" lon="5.24035">
        <ele>74</ele>
        <time>2019-09-22T22:31:20Z</time>
      </trkpt>
      <trkpt lat="50.51659" lon="5.24043">
        <ele>74</ele>
        <time>2019-09-22T22:31:21Z</time>
      </trkpt>
      <trkpt lat="50.51667" lon="5.24042">
        <ele>74</ele>
        <time>2019-09-22T22:31:23Z</time>
      </trkpt>
      <trkpt lat="50.51672" lon="5.24032">
        <ele>74</ele>
        <time>2019-09-22T22:31:24Z</time>
      </trkpt>
      <trkpt lat="50.51714" lon="5.24035">
        <ele>75</ele>
        <time>2019-09-22T22:31:32Z</time>
      </trkpt>
      <trkpt lat="50.51728" lon="5.24033">
        <ele>75</ele>
        <time>2019-09-22T22:31:34Z</time>
      </trkpt>
      <trkpt lat="50.51771" lon="5.24017">
        <ele>75</ele>
        <time>2019-09-22T22:31:42Z</time>
      </trkpt>
      <trkpt lat="50.51832" lon="5.23979">
        <ele>76</ele>
        <time>2019-09-22T22:31:54Z</time>
      </trkpt>
      <trkpt lat="50.51911" lon="5.23946">
        <ele>74</ele>
        <time>2019-09-22T22:32:08Z</time>
      </trkpt>
      <trkpt lat="50.51924" lon="5.23936">
        <ele>74</ele>
        <time>2019-09-22T22:32:11Z</time>
      </trkpt>
      <trkpt lat="50.51944" lon="5.23907">
        <ele>74</ele>
        <time>2019-09-22T22:32:16Z</time>
      </trkpt>
      <trkpt lat="50.51959" lon="5.23869">
        <ele>72</ele>
        <time>2019-09-22T22:32:21Z</time>
      </trkpt>
      <trkpt lat="50.51966" lon="5.23863">
        <ele>72</ele>
        <time>2019-09-22T22:32:22Z</time>
      </trkpt>
      <trkpt lat="50.51973" lon="5.23851">
        <ele>71</ele>
        <time>2019-09-22T22:32:24Z</time>
      </trkpt>
      <trkpt lat="50.51971" lon="5.23836">
        <ele>71</ele>
        <time>2019-09-22T22:32:26Z</time>
      </trkpt>
      <trkpt lat="50.51977" lon="5.23817">
        <ele>70</ele>
        <time>2019-09-22T22:32:28Z</time>
      </trkpt>
      <trkpt lat="50.52038" lon="5.23672">
        <ele>73</ele>
        <time>2019-09-22T22:32:48Z</time>
      </trkpt>
      <trkpt lat="50.52091" lon="5.23722">
        <ele>73</ele>
        <time>2019-09-22T22:32:59Z</time>
      </trkpt>
      <trkpt lat="50.5212" lon="5.23743">
        <ele>73</ele>
        <time>2019-09-22T22:33:05Z</time>
      </trkpt>
      <trkpt lat="50.5219" lon="5.23783">
        <ele>72</ele>
        <time>2019-09-22T22:33:18Z</time>
      </trkpt>
      <trkpt lat="50.52308" lon="5.23837">
        <ele>70</ele>
        <time>2019-09-22T22:33:40Z</time>
      </trkpt>
      <trkpt lat="50.5248" lon="5.2391">
        <ele>73</ele>
        <time>2019-09-22T22:34:11Z</time>
      </trkpt>
      <trkpt lat="50.526" lon="5.23968">
        <ele>74</ele>
        <time>2019-09-22T22:34:34Z</time>
      </trkpt>
      <trkpt lat="50.52785" lon="5.2405">
        <ele>71</ele>
        <time>2019-09-22T22:35:08Z</time>
      </trkpt>
      <trkpt lat="50.52993" lon="5.24146">
        <ele>70</ele>
        <time>2019-09-22T22:35:46Z</time>
      </trkpt>
      <trkpt lat="50.53015" lon="5.24158">
        <ele>70</ele>
        <time>2019-09-22T22:35:51Z</time>
      </trkpt>
      <trkpt lat="50.53095" lon="5.24211">
        <ele>70</ele>
        <time>2019-09-22T22:36:06Z</time>
      </trkpt>
      <trkpt lat="50.53142" lon="5.24253">
        <ele>71</ele>
        <time>2019-09-22T22:36:16Z</time>
      </trkpt>
      <trkpt lat="50.53212" lon="5.24339">
        <ele>76</ele>
        <time>2019-09-22T22:36:31Z</time>
      </trkpt>
      <trkpt lat="50.5326" lon="5.24407">
        <ele>76</ele>
        <time>2019-09-22T22:36:43Z</time>
      </trkpt>
      <trkpt lat="50.53297" lon="5.24466">
        <ele>79</ele>
        <time>2019-09-22T22:36:52Z</time>
      </trkpt>
      <trkpt lat="50.5333" lon="5.24531">
        <ele>77</ele>
        <time>2019-09-22T22:37:02Z</time>
      </trkpt>
      <trkpt lat="50.53369" lon="5.2462">
        <ele>84</ele>
        <time>2019-09-22T22:37:14Z</time>
      </trkpt>
      <trkpt lat="50.5344" lon="5.24813">
        <ele>80</ele>
        <time>2019-09-22T22:37:39Z</time>
      </trkpt>
      <trkpt lat="50.53478" lon="5.24935">
        <ele>78</ele>
        <time>2019-09-22T22:37:55Z</time>
      </trkpt>
      <trkpt lat="50.53643" lon="5.25519">
        <ele>75</ele>
        <time>2019-09-22T22:39:07Z</time>
      </trkpt>
      <trkpt lat="50.53679" lon="5.25657">
        <ele>72</ele>
        <time>2019-09-22T22:39:24Z</time>
      </trkpt>
      <trkpt lat="50.53766" lon="5.26095">
        <ele>75</ele>
        <time>2019-09-22T22:40:16Z</time>
      </trkpt>
      <trkpt lat="50.53771" lon="5.2614">
        <ele>76</ele>
        <time>2019-09-22T22:40:21Z</time>
      </trkpt>
      <trkpt lat="50.53775" lon="5.26225">
        <ele>77</ele>
        <time>2019-09-22T22:40:30Z</time>
      </trkpt>
      <trkpt lat="50.53774" lon="5.26289">
        <ele>79</ele>
        <time>2019-09-22T22:40:38Z</time>
      </trkpt>
      <trkpt lat="50.53754" lon="5.26432">
        <ele>79</ele>
        <time>2019-09-22T22:40:54Z</time>
      </trkpt>
      <trkpt lat="50.53749" lon="5.26485">
        <ele>79</ele>
        <time>2019-09-22T22:41:00Z</time>
      </trkpt>
      <trkpt lat="50.53747" lon="5.26562">
        <ele>74</ele>
        <time>2019-09-22T22:41:09Z</time>
      </trkpt>
      <trkpt lat="50.53752" lon="5.26678">
        <ele>72</ele>
        <time>2019-09-22T22:41:22Z</time>
      </trkpt>
      <trkpt lat="50.53762" lon="5.26722">
        <ele>75</ele>
        <time>2019-09-22T22:41:27Z</time>
      </trkpt>
      <trkpt lat="50.53793" lon="5.26834">
        <ele>79</ele>
        <time>2019-09-22T22:41:41Z</time>
      </trkpt>
      <trkpt lat="50.53797" lon="5.26872">
        <ele>81</ele>
        <time>2019-09-22T22:41:46Z</time>
      </trkpt>
      <trkpt lat="50.53795" lon="5.27048">
        <ele>80</ele>
        <time>2019-09-22T22:42:05Z</time>
      </trkpt>
      <trkpt lat="50.53799" lon="5.27083">
        <ele>81</ele>
        <time>2019-09-22T22:42:09Z</time>
      </trkpt>
      <trkpt lat="50.53827" lon="5.27223">
        <ele>81</ele>
        <time>2019-09-22T22:42:26Z</time>
      </trkpt>
      <trkpt lat="50.53831" lon="5.27264">
        <ele>79</ele>
        <time>2019-09-22T22:42:31Z</time>
      </trkpt>
      <trkpt lat="50.53833" lon="5.273">
        <ele>78</ele>
        <time>2019-09-22T22:42:35Z</time>
      </trkpt>
      <trkpt lat="50.5383" lon="5.27387">
        <ele>78</ele>
        <time>2019-09-22T22:42:45Z</time>
      </trkpt>
      <trkpt lat="50.53815" lon="5.27563">
        <ele>74</ele>
        <time>2019-09-22T22:43:05Z</time>
      </trkpt>
      <trkpt lat="50.53815" lon="5.27606">
        <ele>73</ele>
        <time>2019-09-22T22:43:10Z</time>
      </trkpt>
      <trkpt lat="50.53819" lon="5.27661">
        <ele>73</ele>
        <time>2019-09-22T22:43:16Z</time>
      </trkpt>
      <trkpt lat="50.53865" lon="5.27992">
        <ele>69</ele>
        <time>2019-09-22T22:43:54Z</time>
      </trkpt>
      <trkpt lat="50.53976" lon="5.28896">
        <ele>71</ele>
        <time>2019-09-22T22:45:38Z</time>
      </trkpt>
      <trkpt lat="50.5408" lon="5.29668">
        <ele>70</ele>
        <time>2019-09-22T22:47:08Z</time>
      </trkpt>
      <trkpt lat="50.54134" lon="5.30095">
        <ele>69</ele>
        <time>2019-09-22T22:47:57Z</time>
      </trkpt>
      <trkpt lat="50.54157" lon="5.30267">
        <ele>68</ele>
        <time>2019-09-22T22:48:17Z</time>
      </trkpt>
      <trkpt lat="50.54172" lon="5.30358">
        <ele>68</ele>
        <time>2019-09-22T22:48:27Z</time>
      </trkpt>
      <trkpt lat="50.54188" lon="5.30424">
        <ele>68</ele>
        <time>2019-09-22T22:48:35Z</time>
      </trkpt>
      <trkpt lat="50.5421" lon="5.30494">
        <ele>68</ele>
        <time>2019-09-22T22:48:44Z</time>
      </trkpt>
      <trkpt lat="50.54243" lon="5.30578">
        <ele>69</ele>
        <time>2019-09-22T22:48:55Z</time>
      </trkpt>
      <trkpt lat="50.54457" lon="5.31062">
        <ele>72</ele>
        <time>2019-09-22T22:50:02Z</time>
      </trkpt>
      <trkpt lat="50.5451" lon="5.31187">
        <ele>72</ele>
        <time>2019-09-22T22:50:19Z</time>
      </trkpt>
      <trkpt lat="50.54689" lon="5.31586">
        <ele>72</ele>
        <time>2019-09-22T22:51:14Z</time>
      </trkpt>
      <trkpt lat="50.54756" lon="5.31743">
        <ele>73</ele>
        <time>2019-09-22T22:51:36Z</time>
      </trkpt>
      <trkpt lat="50.5483" lon="5.31899">
        <ele>75</ele>
        <time>2019-09-22T22:51:58Z</time>
      </trkpt>
      <trkpt lat="50.54827" lon="5.31909">
        <ele>75</ele>
        <time>2019-09-22T22:51:59Z</time>
      </trkpt>
      <trkpt lat="50.5483" lon="5.31918">
        <ele>75</ele>
        <time>2019-09-22T22:52:00Z</time>
      </trkpt>
      <trkpt lat="50.5484" lon="5.31922">
        <ele>75</ele>
        <time>2019-09-22T22:52:02Z</time>
      </trkpt>
      <trkpt lat="50.54855" lon="5.31937">
        <ele>75</ele>
        <time>2019-09-22T22:52:05Z</time>
      </trkpt>
      <trkpt lat="50.54972" lon="5.32149">
        <ele>71</ele>
        <time>2019-09-22T22:52:37Z</time>
      </trkpt>
      <trkpt lat="50.55248" lon="5.32627">
        <ele>75</ele>
        <time>2019-09-22T22:53:50Z</time>
      </trkpt>
      <trkpt lat="50.55289" lon="5.32708">
        <ele>81</ele>
        <time>2019-09-22T22:54:01Z</time>
      </trkpt>
      <trkpt lat="50.55345" lon="5.32863">
        <ele>81</ele>
        <time>2019-09-22T22:54:22Z</time>
      </trkpt>
      <trkpt lat="50.5538" lon="5.32943">
        <ele>81</ele>
        <time>2019-09-22T22:54:33Z</time>
      </trkpt>
      <trkpt lat="50.55521" lon="5.33196">
        <ele>80</ele>
        <time>2019-09-22T22:55:11Z</time>
      </trkpt>
      <trkpt lat="50.55611" lon="5.33307">
        <ele>85</ele>
        <time>2019-09-22T22:55:31Z</time>
      </trkpt>
      <trkpt lat="50.55646" lon="5.33372">
        <ele>83</ele>
        <time>2019-09-22T22:55:41Z</time>
      </trkpt>
      <trkpt lat="50.55912" lon="5.33922">
        <ele>71</ele>
        <time>2019-09-22T22:56:59Z</time>
      </trkpt>
      <trkpt lat="50.55933" lon="5.33952">
        <ele>73</ele>
        <time>2019-09-22T22:57:04Z</time>
      </trkpt>
      <trkpt lat="50.55949" lon="5.33966">
        <ele>76</ele>
        <time>2019-09-22T22:57:07Z</time>
      </trkpt>
      <trkpt lat="50.55971" lon="5.3398">
        <ele>81</ele>
        <time>2019-09-22T22:57:11Z</time>
      </trkpt>
      <trkpt lat="50.55988" lon="5.34">
        <ele>82</ele>
        <time>2019-09-22T22:57:15Z</time>
      </trkpt>
      <trkpt lat="50.56" lon="5.34024">
        <ele>82</ele>
        <time>2019-09-22T22:57:19Z</time>
      </trkpt>
      <trkpt lat="50.56142" lon="5.34416">
        <ele>78</ele>
        <time>2019-09-22T22:58:10Z</time>
      </trkpt>
      <trkpt lat="50.56178" lon="5.34524">
        <ele>76</ele>
        <time>2019-09-22T22:58:23Z</time>
      </trkpt>
      <trkpt lat="50.5625" lon="5.34714">
        <ele>76</ele>
        <time>2019-09-22T22:58:48Z</time>
      </trkpt>
      <trkpt lat="50.56322" lon="5.34915">
        <ele>71</ele>
        <time>2019-09-22T22:59:14Z</time>
      </trkpt>
      <trkpt lat="50.56413" lon="5.35206">
        <ele>69</ele>
        <time>2019-09-22T22:59:51Z</time>
      </trkpt>
      <trkpt lat="50.56584" lon="5.35789">
        <ele>78</ele>
        <time>2019-09-22T23:01:04Z</time>
      </trkpt>
      <trkpt lat="50.5668" lon="5.3614">
        <ele>75</ele>
        <time>2019-09-22T23:01:47Z</time>
      </trkpt>
      <trkpt lat="50.56761" lon="5.36551">
        <ele>75</ele>
        <time>2019-09-22T23:02:35Z</time>
      </trkpt>
      <trkpt lat="50.56845" lon="5.36867">
        <ele>80</ele>
        <time>2019-09-22T23:03:14Z</time>
      </trkpt>
      <trkpt lat="50.56902" lon="5.37108">
        <ele>77</ele>
        <time>2019-09-22T23:03:43Z</time>
      </trkpt>
      <trkpt lat="50.56935" lon="5.3722">
        <ele>76</ele>
        <time>2019-09-22T23:03:57Z</time>
      </trkpt>
      <trkpt lat="50.57031" lon="5.37497">
        <ele>81</ele>
        <time>2019-09-22T23:04:33Z</time>
      </trkpt>
      <trkpt lat="50.5713" lon="5.37793">
        <ele>78</ele>
        <time>2019-09-22T23:05:11Z</time>
      </trkpt>
      <trkpt lat="50.57219" lon="5.37976">
        <ele>76</ele>
        <time>2019-09-22T23:05:37Z</time>
      </trkpt>
      <trkpt lat="50.57243" lon="5.38032">
        <ele>75</ele>
        <time>2019-09-22T23:05:44Z</time>
      </trkpt>
      <trkpt lat="50.57292" lon="5.38163">
        <ele>83</ele>
        <time>2019-09-22T23:06:02Z</time>
      </trkpt>
      <trkpt lat="50.57321" lon="5.38231">
        <ele>82</ele>
        <time>2019-09-22T23:06:11Z</time>
      </trkpt>
      <trkpt lat="50.57396" lon="5.3837">
        <ele>82</ele>
        <time>2019-09-22T23:06:31Z</time>
      </trkpt>
      <trkpt lat="50.57574" lon="5.38666">
        <ele>82</ele>
        <time>2019-09-22T23:07:17Z</time>
      </trkpt>
      <trkpt lat="50.57655" lon="5.38825">
        <ele>79</ele>
        <time>2019-09-22T23:07:40Z</time>
      </trkpt>
      <trkpt lat="50.57703" lon="5.38912">
        <ele>80</ele>
        <time>2019-09-22T23:07:53Z</time>
      </trkpt>
      <trkpt lat="50.57841" lon="5.39146">
        <ele>82</ele>
        <time>2019-09-22T23:08:30Z</time>
      </trkpt>
      <trkpt lat="50.57863" lon="5.39192">
        <ele>84</ele>
        <time>2019-09-22T23:08:36Z</time>
      </trkpt>
      <trkpt lat="50.57869" lon="5.39231">
        <ele>81</ele>
        <time>2019-09-22T23:08:41Z</time>
      </trkpt>
      <trkpt lat="50.57869" lon="5.3932">
        <ele>74</ele>
        <time>2019-09-22T23:08:51Z</time>
      </trkpt>
      <trkpt lat="50.57871" lon="5.39347">
        <ele>73</ele>
        <time>2019-09-22T23:08:54Z</time>
      </trkpt>
      <trkpt lat="50.57877" lon="5.39377">
        <ele>72</ele>
        <time>2019-09-22T23:08:57Z</time>
      </trkpt>
      <trkpt lat="50.57948" lon="5.39549">
        <ele>71</ele>
        <time>2019-09-22T23:09:20Z</time>
      </trkpt>
      <trkpt lat="50.57953" lon="5.39595">
        <ele>70</ele>
        <time>2019-09-22T23:09:26Z</time>
      </trkpt>
      <trkpt lat="50.57951" lon="5.39627">
        <ele>69</ele>
        <time>2019-09-22T23:09:29Z</time>
      </trkpt>
      <trkpt lat="50.57944" lon="5.39657">
        <ele>68</ele>
        <time>2019-09-22T23:09:33Z</time>
      </trkpt>
      <trkpt lat="50.57933" lon="5.39684">
        <ele>67</ele>
        <time>2019-09-22T23:09:37Z</time>
      </trkpt>
      <trkpt lat="50.57893" lon="5.39742">
        <ele>66</ele>
        <time>2019-09-22T23:09:46Z</time>
      </trkpt>
      <trkpt lat="50.57885" lon="5.39746">
        <ele>66</ele>
        <time>2019-09-22T23:09:48Z</time>
      </trkpt>
      <trkpt lat="50.57877" lon="5.39744">
        <ele>65</ele>
        <time>2019-09-22T23:09:49Z</time>
      </trkpt>
      <trkpt lat="50.57871" lon="5.39749">
        <ele>65</ele>
        <time>2019-09-22T23:09:50Z</time>
      </trkpt>
      <trkpt lat="50.57865" lon="5.39763">
        <ele>65</ele>
        <time>2019-09-22T23:09:52Z</time>
      </trkpt>
      <trkpt lat="50.57871" lon="5.3978">
        <ele>66</ele>
        <time>2019-09-22T23:09:55Z</time>
      </trkpt>
      <trkpt lat="50.57884" lon="5.39784">
        <ele>66</ele>
        <time>2019-09-22T23:09:57Z</time>
      </trkpt>
      <trkpt lat="50.58059" lon="5.403">
        <ele>66</ele>
        <time>2019-09-22T23:11:03Z</time>
      </trkpt>
      <trkpt lat="50.58097" lon="5.404">
        <ele>66</ele>
        <time>2019-09-22T23:11:16Z</time>
      </trkpt>
      <trkpt lat="50.58166" lon="5.40568">
        <ele>66</ele>
        <time>2019-09-22T23:11:39Z</time>
      </trkpt>
      <trkpt lat="50.58271" lon="5.40858">
        <ele>67</ele>
        <time>2019-09-22T23:12:16Z</time>
      </trkpt>
      <trkpt lat="50.58334" lon="5.41014">
        <ele>67</ele>
        <time>2019-09-22T23:12:37Z</time>
      </trkpt>
      <trkpt lat="50.5841" lon="5.41174">
        <ele>71</ele>
        <time>2019-09-22T23:13:00Z</time>
      </trkpt>
      <trkpt lat="50.58437" lon="5.41223">
        <ele>71</ele>
        <time>2019-09-22T23:13:07Z</time>
      </trkpt>
      <trkpt lat="50.58579" lon="5.41458">
        <ele>68</ele>
        <time>2019-09-22T23:13:44Z</time>
      </trkpt>
      <trkpt lat="50.58595" lon="5.41489">
        <ele>68</ele>
        <time>2019-09-22T23:13:48Z</time>
      </trkpt>
      <trkpt lat="50.58605" lon="5.41526">
        <ele>68</ele>
        <time>2019-09-22T23:13:53Z</time>
      </trkpt>
      <trkpt lat="50.58609" lon="5.41553">
        <ele>68</ele>
        <time>2019-09-22T23:13:56Z</time>
      </trkpt>
      <trkpt lat="50.58606" lon="5.41733">
        <ele>65</ele>
        <time>2019-09-22T23:14:16Z</time>
      </trkpt>
      <trkpt lat="50.58611" lon="5.41805">
        <ele>66</ele>
        <time>2019-09-22T23:14:25Z</time>
      </trkpt>
      <trkpt lat="50.58677" lon="5.4244">
        <ele>65</ele>
        <time>2019-09-22T23:15:37Z</time>
      </trkpt>
      <trkpt lat="50.58694" lon="5.42575">
        <ele>63</ele>
        <time>2019-09-22T23:15:53Z</time>
      </trkpt>
      <trkpt lat="50.58713" lon="5.4267">
        <ele>64</ele>
        <time>2019-09-22T23:16:04Z</time>
      </trkpt>
      <trkpt lat="50.58814" lon="5.43081">
        <ele>67</ele>
        <time>2019-09-22T23:16:54Z</time>
      </trkpt>
      <trkpt lat="50.58864" lon="5.43274">
        <ele>72</ele>
        <time>2019-09-22T23:17:17Z</time>
      </trkpt>
      <trkpt lat="50.5888" lon="5.43402">
        <ele>71</ele>
        <time>2019-09-22T23:17:32Z</time>
      </trkpt>
      <trkpt lat="50.58905" lon="5.43716">
        <ele>68</ele>
        <time>2019-09-22T23:18:08Z</time>
      </trkpt>
      <trkpt lat="50.58989" lon="5.44301">
        <ele>71</ele>
        <time>2019-09-22T23:19:16Z</time>
      </trkpt>
      <trkpt lat="50.5903" lon="5.44515">
        <ele>67</ele>
        <time>2019-09-22T23:19:41Z</time>
      </trkpt>
      <trkpt lat="50.59042" lon="5.44566">
        <ele>67</ele>
        <time>2019-09-22T23:19:47Z</time>
      </trkpt>
      <trkpt lat="50.59057" lon="5.44609">
        <ele>67</ele>
        <time>2019-09-22T23:19:53Z</time>
      </trkpt>
      <trkpt lat="50.59084" lon="5.44674">
        <ele>66</ele>
        <time>2019-09-22T23:20:01Z</time>
      </trkpt>
      <trkpt lat="50.59138" lon="5.44783">
        <ele>64</ele>
        <time>2019-09-22T23:20:17Z</time>
      </trkpt>
      <trkpt lat="50.59171" lon="5.44856">
        <ele>64</ele>
        <time>2019-09-22T23:20:27Z</time>
      </trkpt>
      <trkpt lat="50.59181" lon="5.44888">
        <ele>64</ele>
        <time>2019-09-22T23:20:31Z</time>
      </trkpt>
      <trkpt lat="50.59192" lon="5.44939">
        <ele>65</ele>
        <time>2019-09-22T23:20:37Z</time>
      </trkpt>
      <trkpt lat="50.59226" lon="5.4514">
        <ele>66</ele>
        <time>2019-09-22T23:21:01Z</time>
      </trkpt>
      <trkpt lat="50.59239" lon="5.45244">
        <ele>64</ele>
        <time>2019-09-22T23:21:13Z</time>
      </trkpt>
      <trkpt lat="50.59235" lon="5.45392">
        <ele>66</ele>
        <time>2019-09-22T23:21:29Z</time>
      </trkpt>
      <trkpt lat="50.59255" lon="5.45395">
        <ele>66</ele>
        <time>2019-09-22T23:21:33Z</time>
      </trkpt>
      <trkpt lat="50.59268" lon="5.45409">
        <ele>67</ele>
        <time>2019-09-22T23:21:36Z</time>
      </trkpt>
      <trkpt lat="50.59307" lon="5.45488">
        <ele>66</ele>
        <time>2019-09-22T23:21:47Z</time>
      </trkpt>
      <trkpt lat="50.59376" lon="5.45611">
        <ele>68</ele>
        <time>2019-09-22T23:22:06Z</time>
      </trkpt>
      <trkpt lat="50.59446" lon="5.45796">
        <ele>66</ele>
        <time>2019-09-22T23:22:30Z</time>
      </trkpt>
      <trkpt lat="50.5959" lon="5.46157">
        <ele>68</ele>
        <time>2019-09-22T23:23:18Z</time>
      </trkpt>
      <trkpt lat="50.59614" lon="5.46225">
        <ele>67</ele>
        <time>2019-09-22T23:23:27Z</time>
      </trkpt>
      <trkpt lat="50.59744" lon="5.46563">
        <ele>68</ele>
        <time>2019-09-22T23:24:12Z</time>
      </trkpt>
      <trkpt lat="50.59797" lon="5.46673">
        <ele>67</ele>
        <time>2019-09-22T23:24:27Z</time>
      </trkpt>
      <trkpt lat="50.59848" lon="5.46797">
        <ele>68</ele>
        <time>2019-09-22T23:24:44Z</time>
      </trkpt>
      <trkpt lat="50.59877" lon="5.46918">
        <ele>66</ele>
        <time>2019-09-22T23:24:58Z</time>
      </trkpt>
      <trkpt lat="50.59923" lon="5.47193">
        <ele>64</ele>
        <time>2019-09-22T23:25:31Z</time>
      </trkpt>
      <trkpt lat="50.59949" lon="5.47271">
        <ele>65</ele>
        <time>2019-09-22T23:25:41Z</time>
      </trkpt>
      <trkpt lat="50.60349" lon="5.47982">
        <ele>67</ele>
        <time>2019-09-22T23:27:28Z</time>
      </trkpt>
      <trkpt lat="50.60387" lon="5.48062">
        <ele>67</ele>
        <time>2019-09-22T23:27:39Z</time>
      </trkpt>
      <trkpt lat="50.60428" lon="5.4816">
        <ele>68</ele>
        <time>2019-09-22T23:27:52Z</time>
      </trkpt>
      <trkpt lat="50.60454" lon="5.48232">
        <ele>68</ele>
        <time>2019-09-22T23:28:02Z</time>
      </trkpt>
      <trkpt lat="50.6049" lon="5.48364">
        <ele>67</ele>
        <time>2019-09-22T23:28:18Z</time>
      </trkpt>
      <trkpt lat="50.60486" lon="5.4838">
        <ele>67</ele>
        <time>2019-09-22T23:28:20Z</time>
      </trkpt>
      <trkpt lat="50.60489" lon="5.48391">
        <ele>67</ele>
        <time>2019-09-22T23:28:21Z</time>
      </trkpt>
      <trkpt lat="50.6042" lon="5.48467">
        <ele>64</ele>
        <time>2019-09-22T23:28:36Z</time>
      </trkpt>
      <trkpt lat="50.60406" lon="5.48442">
        <ele>65</ele>
        <time>2019-09-22T23:28:40Z</time>
      </trkpt>
      <trkpt lat="50.60418" lon="5.4843">
        <ele>65</ele>
        <time>2019-09-22T23:28:43Z</time>
      </trkpt>
    </trkseg>
  </trk>
</gpx>